ETD451 YSSY-OMAA
Flight info
| Callsign | ETD451 |
|---|---|
| Flight time | 13h 52m |
| Altitude | 30000 |
| Route | KADOM1/34L KADOM A576 PKS J141 NEWMO DCT UPSES DCT ISMOR DCT 25S125E/N0504F320 DCT GUKON DCT OPOSA DCT MALBI DCT NODAB DCT TATOD/N0498F340 DCT 07S097E 05S094E DCT ELATI N640 HAMBA/N0491F360 N640 KAT P570 EMURU N563 TULBU P558 SODEX N563 NOBTO |
| Aircraft | B77W/H-SDE1E2E3FGHIJ2J3J4J5M1RWXY/LB1D1 |
Departure
| Time | 2026-04-26 03:39 |
|---|---|
| Airport | Sydney Kingsford Smith International Airport (YSSY) |
Arrival
| Time | 2026-04-26 17:31 |
|---|---|
| Airport | Zayed International Airport (OMAA) |
| Time | Latitude | Longitude | Altitude | Speed | Heading |
|---|---|---|---|---|---|
| 2026-04-26 02:51 | -33.93886 | 151.16658 | 26 ft | 0 kts | 257° |
| 2026-04-26 03:21 | -33.93879 | 151.16681 | 42 ft | 4 kts | 248° |
| 2026-04-26 03:22 | -33.93869 | 151.16711 | 31 ft | 4 kts | 236° |
| 2026-04-26 03:22 | -33.93851 | 151.16732 | 31 ft | 4 kts | 201° |
| 2026-04-26 03:22 | -33.93826 | 151.16736 | 31 ft | 4 kts | 167° |
| 2026-04-26 03:22 | -33.93819 | 151.16735 | 30 ft | 0 kts | 164° |
| 2026-04-26 03:27 | -33.93829 | 151.16738 | 31 ft | 3 kts | 164° |
| 2026-04-26 03:27 | -33.93851 | 151.16745 | 28 ft | 3 kts | 164° |
| 2026-04-26 03:27 | -33.93881 | 151.16756 | 28 ft | 5 kts | 164° |
| 2026-04-26 03:27 | -33.93916 | 151.16767 | 28 ft | 5 kts | 164° |
| 2026-04-26 03:28 | -33.93952 | 151.16780 | 29 ft | 5 kts | 164° |
| 2026-04-26 03:28 | -33.93988 | 151.16792 | 30 ft | 5 kts | 164° |
| 2026-04-26 03:28 | -33.94023 | 151.16804 | 29 ft | 5 kts | 159° |
| 2026-04-26 03:28 | -33.94048 | 151.16836 | 29 ft | 5 kts | 114° |
| 2026-04-26 03:29 | -33.94050 | 151.16880 | 31 ft | 5 kts | 81° |
| 2026-04-26 03:29 | -33.94041 | 151.16923 | 29 ft | 5 kts | 75° |
| 2026-04-26 03:29 | -33.94035 | 151.16952 | 29 ft | 6 kts | 75° |
| 2026-04-26 03:29 | -33.94022 | 151.17008 | 29 ft | 7 kts | 74° |
| 2026-04-26 03:30 | -33.94008 | 151.17066 | 28 ft | 7 kts | 73° |
| 2026-04-26 03:30 | -33.93993 | 151.17125 | 24 ft | 7 kts | 73° |
| 2026-04-26 03:30 | -33.93983 | 151.17186 | 28 ft | 7 kts | 91° |
| 2026-04-26 03:30 | -33.94013 | 151.17233 | 26 ft | 7 kts | 154° |
| 2026-04-26 03:31 | -33.94063 | 151.17248 | 29 ft | 7 kts | 169° |
| 2026-04-26 03:31 | -33.94145 | 151.17268 | 27 ft | 15 kts | 168° |
| 2026-04-26 03:31 | -33.94247 | 151.17295 | 27 ft | 15 kts | 168° |
| 2026-04-26 03:31 | -33.94350 | 151.17323 | 30 ft | 15 kts | 167° |
| 2026-04-26 03:32 | -33.94450 | 151.17350 | 31 ft | 15 kts | 167° |
| 2026-04-26 03:32 | -33.94553 | 151.17376 | 31 ft | 15 kts | 168° |
| 2026-04-26 03:32 | -33.94656 | 151.17402 | 31 ft | 15 kts | 167° |
| 2026-04-26 03:32 | -33.94758 | 151.17429 | 29 ft | 15 kts | 167° |
| 2026-04-26 03:33 | -33.94862 | 151.17456 | 28 ft | 15 kts | 168° |
| 2026-04-26 03:33 | -33.94967 | 151.17482 | 27 ft | 15 kts | 168° |
| 2026-04-26 03:33 | -33.95066 | 151.17507 | 28 ft | 14 kts | 168° |
| 2026-04-26 03:33 | -33.95160 | 151.17530 | 26 ft | 14 kts | 168° |
| 2026-04-26 03:34 | -33.95255 | 151.17554 | 24 ft | 14 kts | 168° |
| 2026-04-26 03:34 | -33.95349 | 151.17579 | 26 ft | 14 kts | 166° |
| 2026-04-26 03:34 | -33.95442 | 151.17606 | 28 ft | 14 kts | 167° |
| 2026-04-26 03:34 | -33.95537 | 151.17631 | 28 ft | 14 kts | 168° |
| 2026-04-26 03:35 | -33.95630 | 151.17654 | 28 ft | 14 kts | 168° |
| 2026-04-26 03:35 | -33.95724 | 151.17678 | 29 ft | 14 kts | 168° |
| 2026-04-26 03:35 | -33.95818 | 151.17703 | 28 ft | 14 kts | 167° |
| 2026-04-26 03:35 | -33.95912 | 151.17728 | 27 ft | 14 kts | 167° |
| 2026-04-26 03:36 | -33.96006 | 151.17753 | 28 ft | 14 kts | 168° |
| 2026-04-26 03:36 | -33.96100 | 151.17777 | 29 ft | 14 kts | 168° |
| 2026-04-26 03:36 | -33.96195 | 151.17801 | 28 ft | 14 kts | 168° |
| 2026-04-26 03:36 | -33.96267 | 151.17819 | 27 ft | 8 kts | 168° |
| 2026-04-26 03:37 | -33.96320 | 151.17833 | 27 ft | 8 kts | 168° |
| 2026-04-26 03:37 | -33.96372 | 151.17846 | 28 ft | 8 kts | 168° |
| 2026-04-26 03:37 | -33.96417 | 151.17878 | 28 ft | 8 kts | 131° |
| 2026-04-26 03:37 | -33.96433 | 151.17937 | 28 ft | 8 kts | 94° |
| 2026-04-26 03:38 | -33.96428 | 151.18001 | 29 ft | 8 kts | 80° |
| 2026-04-26 03:38 | -33.96395 | 151.18047 | 29 ft | 8 kts | 17° |
| 2026-04-26 03:38 | -33.96314 | 151.18032 | 28 ft | 24 kts | 349° |
| 2026-04-26 03:38 | -33.95905 | 151.17928 | 26 ft | 97 kts | 348° |
| 2026-04-26 03:39 | -33.95011 | 151.17697 | 29 ft | 163 kts | 347° |
| 2026-04-26 03:39 | -33.93773 | 151.17371 | 214 ft | 193 kts | 349° |
| 2026-04-26 03:39 | -33.92474 | 151.17048 | 942 ft | 189 kts | 349° |
| 2026-04-26 03:39 | -33.91229 | 151.16506 | 1525 ft | 194 kts | 322° |
| 2026-04-26 03:40 | -33.90468 | 151.15169 | 1803 ft | 201 kts | 295° |
| 2026-04-26 03:40 | -33.89872 | 151.13564 | 1939 ft | 218 kts | 298° |
| 2026-04-26 03:40 | -33.89144 | 151.11870 | 2141 ft | 236 kts | 300° |
| 2026-04-26 03:40 | -33.88321 | 151.10120 | 2596 ft | 243 kts | 302° |
| 2026-04-26 03:41 | -33.87437 | 151.08355 | 3127 ft | 250 kts | 303° |
| 2026-04-26 03:41 | -33.86497 | 151.06555 | 3626 ft | 257 kts | 304° |
| 2026-04-26 03:41 | -33.85526 | 151.04722 | 4214 ft | 261 kts | 304° |
| 2026-04-26 03:41 | -33.84551 | 151.02907 | 4793 ft | 266 kts | 304° |
| 2026-04-26 03:42 | -33.83665 | 151.00953 | 5286 ft | 269 kts | 288° |
| 2026-04-26 03:42 | -33.83253 | 150.98727 | 5753 ft | 274 kts | 281° |
| 2026-04-26 03:42 | -33.82853 | 150.96476 | 6322 ft | 277 kts | 285° |
| 2026-04-26 03:42 | -33.82322 | 150.94230 | 6889 ft | 280 kts | 287° |
| 2026-04-26 03:43 | -33.81754 | 150.91973 | 7444 ft | 282 kts | 287° |
| 2026-04-26 03:43 | -33.81186 | 150.89725 | 7963 ft | 287 kts | 287° |
| 2026-04-26 03:43 | -33.80606 | 150.87415 | 8503 ft | 289 kts | 287° |
| 2026-04-26 03:43 | -33.80026 | 150.85090 | 9106 ft | 291 kts | 287° |
| 2026-04-26 03:44 | -33.79446 | 150.82744 | 9650 ft | 294 kts | 287° |
| 2026-04-26 03:44 | -33.78862 | 150.80379 | 10205 ft | 297 kts | 287° |
| 2026-04-26 03:44 | -33.78260 | 150.77936 | 10411 ft | 313 kts | 287° |
| 2026-04-26 03:44 | -33.77623 | 150.75347 | 10550 ft | 332 kts | 287° |
| 2026-04-26 03:45 | -33.76958 | 150.72644 | 10692 ft | 351 kts | 287° |
| 2026-04-26 03:45 | -33.76249 | 150.69752 | 10851 ft | 370 kts | 287° |
| 2026-04-26 03:45 | -33.75510 | 150.66737 | 11289 ft | 379 kts | 287° |
| 2026-04-26 03:45 | -33.74755 | 150.63663 | 11866 ft | 385 kts | 287° |
| 2026-04-26 03:46 | -33.73991 | 150.60558 | 12474 ft | 390 kts | 287° |
| 2026-04-26 03:46 | -33.73216 | 150.57411 | 13112 ft | 394 kts | 287° |
| 2026-04-26 03:46 | -33.72435 | 150.54237 | 13793 ft | 397 kts | 287° |
| 2026-04-26 03:47 | -33.70862 | 150.47858 | 15007 ft | 404 kts | 287° |
| 2026-04-26 03:47 | -33.70061 | 150.44617 | 15668 ft | 405 kts | 287° |
| 2026-04-26 03:47 | -33.69256 | 150.41359 | 16267 ft | 409 kts | 287° |
| 2026-04-26 03:47 | -33.68440 | 150.38066 | 16831 ft | 413 kts | 287° |
| 2026-04-26 03:48 | -33.67616 | 150.34750 | 17405 ft | 416 kts | 287° |
| 2026-04-26 03:48 | -33.66785 | 150.31404 | 17971 ft | 420 kts | 287° |
| 2026-04-26 03:48 | -33.65945 | 150.28028 | 18540 ft | 423 kts | 287° |
| 2026-04-26 03:48 | -33.65100 | 150.24633 | 19043 ft | 426 kts | 287° |
| 2026-04-26 03:49 | -33.64245 | 150.21209 | 19554 ft | 429 kts | 287° |
| 2026-04-26 03:49 | -33.63385 | 150.17764 | 20068 ft | 431 kts | 287° |
| 2026-04-26 03:49 | -33.62520 | 150.14303 | 20588 ft | 434 kts | 288° |
| 2026-04-26 03:49 | -33.61647 | 150.10820 | 21091 ft | 436 kts | 288° |
| 2026-04-26 03:50 | -33.60782 | 150.07368 | 21565 ft | 439 kts | 288° |
| 2026-04-26 03:50 | -33.59892 | 150.03827 | 22012 ft | 443 kts | 288° |
| 2026-04-26 03:50 | -33.59000 | 150.00276 | 22471 ft | 446 kts | 288° |
| 2026-04-26 03:50 | -33.58100 | 149.96700 | 22947 ft | 449 kts | 288° |
| 2026-04-26 03:51 | -33.57193 | 149.93099 | 23404 ft | 452 kts | 288° |
| 2026-04-26 03:51 | -33.56279 | 149.89482 | 23851 ft | 455 kts | 288° |
| 2026-04-26 03:51 | -33.55359 | 149.85839 | 24212 ft | 457 kts | 288° |
| 2026-04-26 03:51 | -33.54446 | 149.82232 | 24599 ft | 459 kts | 288° |
| 2026-04-26 03:52 | -33.53514 | 149.78553 | 25001 ft | 461 kts | 288° |
| 2026-04-26 03:52 | -33.52580 | 149.74871 | 25396 ft | 462 kts | 288° |
| 2026-04-26 03:52 | -33.51639 | 149.71167 | 25764 ft | 464 kts | 288° |
| 2026-04-26 03:52 | -33.50693 | 149.67453 | 26138 ft | 466 kts | 288° |
| 2026-04-26 03:53 | -33.49743 | 149.63723 | 26496 ft | 468 kts | 288° |
| 2026-04-26 03:53 | -33.48787 | 149.59979 | 26848 ft | 470 kts | 288° |
| 2026-04-26 03:53 | -33.47840 | 149.56272 | 27231 ft | 471 kts | 288° |
| 2026-04-26 03:53 | -33.46879 | 149.52518 | 27619 ft | 472 kts | 287° |
| 2026-04-26 03:54 | -33.45913 | 149.48746 | 27955 ft | 473 kts | 287° |
| 2026-04-26 03:54 | -33.44942 | 149.44965 | 28245 ft | 476 kts | 287° |
| 2026-04-26 03:54 | -33.43964 | 149.41159 | 28519 ft | 478 kts | 287° |
| 2026-04-26 03:54 | -33.42982 | 149.37342 | 28805 ft | 480 kts | 287° |
| 2026-04-26 03:55 | -33.41997 | 149.33517 | 29087 ft | 482 kts | 287° |
| 2026-04-26 03:55 | -33.41020 | 149.29731 | 29379 ft | 483 kts | 287° |
| 2026-04-26 03:55 | -33.40022 | 149.25872 | 29649 ft | 484 kts | 287° |
| 2026-04-26 03:55 | -33.39022 | 149.22006 | 29960 ft | 484 kts | 287° |
| 2026-04-26 03:56 | -33.38027 | 149.18169 | 30333 ft | 482 kts | 287° |
| 2026-04-26 03:56 | -33.37044 | 149.14382 | 30665 ft | 481 kts | 287° |
| 2026-04-26 03:56 | -33.36050 | 149.10560 | 30954 ft | 480 kts | 287° |
| 2026-04-26 03:56 | -33.35060 | 149.06755 | 31208 ft | 479 kts | 287° |
| 2026-04-26 03:57 | -33.34062 | 149.02926 | 31452 ft | 479 kts | 287° |
| 2026-04-26 03:57 | -33.33080 | 148.99163 | 31686 ft | 479 kts | 287° |
| 2026-04-26 03:57 | -33.32087 | 148.95363 | 31947 ft | 478 kts | 287° |
| 2026-04-26 03:57 | -33.31094 | 148.91569 | 32147 ft | 479 kts | 287° |
| 2026-04-26 03:58 | -33.30095 | 148.87758 | 32185 ft | 481 kts | 287° |
| 2026-04-26 03:58 | -33.28093 | 148.80135 | 32204 ft | 478 kts | 287° |
| 2026-04-26 03:59 | -33.26105 | 148.72587 | 32219 ft | 474 kts | 287° |
| 2026-04-26 03:59 | -33.24122 | 148.65079 | 32204 ft | 473 kts | 287° |
| 2026-04-26 04:00 | -33.22150 | 148.57633 | 32212 ft | 472 kts | 287° |
| 2026-04-26 04:00 | -33.20161 | 148.50142 | 32217 ft | 473 kts | 287° |
| 2026-04-26 04:01 | -33.18166 | 148.42647 | 32215 ft | 474 kts | 287° |
| 2026-04-26 04:01 | -33.16161 | 148.35135 | 32215 ft | 475 kts | 287° |
| 2026-04-26 04:02 | -33.14159 | 148.27651 | 32211 ft | 476 kts | 287° |
| 2026-04-26 04:02 | -33.12272 | 148.20067 | 32210 ft | 476 kts | 284° |
| 2026-04-26 04:03 | -33.10654 | 148.12451 | 32212 ft | 477 kts | 284° |
| 2026-04-26 04:03 | -33.09038 | 148.04777 | 32212 ft | 477 kts | 284° |
| 2026-04-26 04:04 | -33.07402 | 147.97099 | 32208 ft | 477 kts | 284° |
| 2026-04-26 04:04 | -33.05752 | 147.89438 | 32218 ft | 476 kts | 285° |
| 2026-04-26 04:05 | -33.04097 | 147.81786 | 32205 ft | 475 kts | 285° |
| 2026-04-26 04:05 | -33.02443 | 147.74171 | 32208 ft | 474 kts | 285° |
| 2026-04-26 04:06 | -33.00800 | 147.66622 | 32200 ft | 473 kts | 285° |
| 2026-04-26 04:06 | -32.99141 | 147.59021 | 32206 ft | 473 kts | 285° |
| 2026-04-26 04:07 | -32.97477 | 147.51426 | 32204 ft | 473 kts | 285° |
| 2026-04-26 04:07 | -32.95823 | 147.43895 | 32203 ft | 473 kts | 285° |
| 2026-04-26 04:08 | -32.94151 | 147.36309 | 32206 ft | 473 kts | 285° |
| 2026-04-26 04:08 | -32.92472 | 147.28715 | 32206 ft | 474 kts | 285° |
| 2026-04-26 04:09 | -32.90784 | 147.21104 | 32206 ft | 475 kts | 285° |
| 2026-04-26 04:09 | -32.89104 | 147.13556 | 32204 ft | 475 kts | 285° |
| 2026-04-26 04:10 | -32.87407 | 147.05946 | 32210 ft | 475 kts | 286° |
| 2026-04-26 04:10 | -32.85703 | 146.98335 | 32204 ft | 475 kts | 286° |
| 2026-04-26 04:11 | -32.84009 | 146.90791 | 32204 ft | 475 kts | 286° |
| 2026-04-26 04:11 | -32.82298 | 146.83194 | 32215 ft | 475 kts | 287° |
| 2026-04-26 04:12 | -32.80584 | 146.75603 | 32209 ft | 475 kts | 287° |
| 2026-04-26 04:12 | -32.78861 | 146.68005 | 32204 ft | 476 kts | 287° |
| 2026-04-26 04:13 | -32.77134 | 146.60409 | 32200 ft | 476 kts | 287° |
| 2026-04-26 04:13 | -32.75415 | 146.52864 | 32204 ft | 476 kts | 287° |
| 2026-04-26 04:14 | -32.73676 | 146.45260 | 32200 ft | 476 kts | 287° |
| 2026-04-26 04:14 | -32.71931 | 146.37653 | 32200 ft | 476 kts | 287° |
| 2026-04-26 04:15 | -32.70193 | 146.30095 | 32193 ft | 476 kts | 287° |
| 2026-04-26 04:15 | -32.68440 | 146.22499 | 32204 ft | 476 kts | 287° |
| 2026-04-26 04:16 | -32.66698 | 146.14970 | 32193 ft | 475 kts | 287° |
| 2026-04-26 04:16 | -32.64943 | 146.07413 | 32196 ft | 474 kts | 287° |
| 2026-04-26 04:17 | -32.63183 | 145.99850 | 32200 ft | 474 kts | 288° |
| 2026-04-26 04:17 | -32.61420 | 145.92301 | 32195 ft | 475 kts | 288° |
| 2026-04-26 04:18 | -32.59663 | 145.84799 | 32195 ft | 475 kts | 288° |
| 2026-04-26 04:18 | -32.57889 | 145.77245 | 32211 ft | 476 kts | 288° |
| 2026-04-26 04:19 | -32.56108 | 145.69687 | 32203 ft | 476 kts | 288° |
| 2026-04-26 04:19 | -32.54321 | 145.62123 | 32195 ft | 476 kts | 288° |
| 2026-04-26 04:20 | -32.52831 | 145.55832 | 32191 ft | 476 kts | 288° |
| 2026-04-26 04:20 | -32.51036 | 145.48277 | 32206 ft | 476 kts | 289° |
| 2026-04-26 04:21 | -32.49241 | 145.40739 | 32187 ft | 475 kts | 289° |
| 2026-04-26 04:21 | -32.47445 | 145.33222 | 32194 ft | 474 kts | 289° |
| 2026-04-26 04:22 | -32.45647 | 145.25719 | 32207 ft | 473 kts | 289° |
| 2026-04-26 04:22 | -32.43849 | 145.18235 | 32190 ft | 472 kts | 289° |
| 2026-04-26 04:23 | -32.42049 | 145.10767 | 32195 ft | 471 kts | 289° |
| 2026-04-26 04:23 | -32.40246 | 145.03304 | 32192 ft | 471 kts | 289° |
| 2026-04-26 04:24 | -32.38449 | 144.95892 | 32201 ft | 471 kts | 289° |
| 2026-04-26 04:24 | -32.36636 | 144.88434 | 32197 ft | 471 kts | 289° |
| 2026-04-26 04:25 | -32.34817 | 144.80970 | 32195 ft | 472 kts | 289° |
| 2026-04-26 04:25 | -32.32993 | 144.73506 | 32199 ft | 472 kts | 289° |
| 2026-04-26 04:26 | -32.31177 | 144.66097 | 32197 ft | 472 kts | 289° |
| 2026-04-26 04:26 | -32.29332 | 144.58589 | 32196 ft | 472 kts | 289° |
| 2026-04-26 04:27 | -32.27507 | 144.51183 | 32196 ft | 472 kts | 289° |
| 2026-04-26 04:27 | -32.25659 | 144.43709 | 32201 ft | 473 kts | 289° |
| 2026-04-26 04:28 | -32.23809 | 144.36244 | 32191 ft | 474 kts | 289° |
| 2026-04-26 04:28 | -32.21961 | 144.28809 | 32192 ft | 474 kts | 289° |
| 2026-04-26 04:29 | -32.20097 | 144.21327 | 32197 ft | 475 kts | 289° |
| 2026-04-26 04:29 | -32.18227 | 144.13847 | 32196 ft | 475 kts | 289° |
| 2026-04-26 04:30 | -32.16346 | 144.06339 | 32190 ft | 476 kts | 289° |
| 2026-04-26 04:30 | -32.14462 | 143.98844 | 32191 ft | 477 kts | 289° |
| 2026-04-26 04:31 | -32.12570 | 143.91334 | 32190 ft | 477 kts | 289° |
| 2026-04-26 04:31 | -32.10684 | 143.83866 | 32185 ft | 477 kts | 289° |
| 2026-04-26 04:32 | -32.08785 | 143.76371 | 32190 ft | 477 kts | 289° |
| 2026-04-26 04:32 | -32.06877 | 143.68859 | 32188 ft | 478 kts | 290° |
| 2026-04-26 04:33 | -32.04974 | 143.61389 | 32182 ft | 478 kts | 290° |
| 2026-04-26 04:33 | -32.03055 | 143.53874 | 32183 ft | 479 kts | 290° |
| 2026-04-26 04:34 | -32.01483 | 143.46224 | 32193 ft | 482 kts | 284° |
| 2026-04-26 04:34 | -32.00253 | 143.38438 | 32171 ft | 483 kts | 283° |
| 2026-04-26 04:35 | -31.99034 | 143.30695 | 32168 ft | 483 kts | 284° |
| 2026-04-26 04:35 | -31.97770 | 143.22914 | 32180 ft | 484 kts | 284° |
| 2026-04-26 04:36 | -31.96479 | 143.15116 | 32166 ft | 484 kts | 284° |
| 2026-04-26 04:36 | -31.95188 | 143.07375 | 32160 ft | 484 kts | 284° |
| 2026-04-26 04:37 | -31.93887 | 142.99600 | 32178 ft | 483 kts | 283° |
| 2026-04-26 04:37 | -31.92583 | 142.91830 | 32161 ft | 484 kts | 283° |
| 2026-04-26 04:38 | -31.91274 | 142.84054 | 32163 ft | 484 kts | 283° |
| 2026-04-26 04:38 | -31.89968 | 142.76328 | 32170 ft | 484 kts | 283° |
| 2026-04-26 04:39 | -31.88640 | 142.68511 | 32164 ft | 484 kts | 283° |
| 2026-04-26 04:39 | -31.87326 | 142.60794 | 32159 ft | 484 kts | 283° |
| 2026-04-26 04:40 | -31.85997 | 142.53024 | 32244 ft | 486 kts | 283° |
| 2026-04-26 04:40 | -31.85327 | 142.49124 | 32499 ft | 485 kts | 282° |
| 2026-04-26 04:40 | -31.84660 | 142.45242 | 32840 ft | 481 kts | 282° |
| 2026-04-26 04:40 | -31.83999 | 142.41398 | 33220 ft | 478 kts | 282° |
| 2026-04-26 04:41 | -31.83339 | 142.37567 | 33405 ft | 478 kts | 282° |
| 2026-04-26 04:41 | -31.82677 | 142.33736 | 33612 ft | 477 kts | 282° |
| 2026-04-26 04:41 | -31.82015 | 142.29911 | 33896 ft | 475 kts | 282° |
| 2026-04-26 04:41 | -31.81357 | 142.26110 | 34086 ft | 474 kts | 279° |
| 2026-04-26 04:42 | -31.80696 | 142.22301 | 34129 ft | 476 kts | 279° |
| 2026-04-26 04:42 | -31.79370 | 142.14710 | 34157 ft | 478 kts | 279° |
| 2026-04-26 04:43 | -31.78029 | 142.07049 | 34172 ft | 478 kts | 279° |
| 2026-04-26 04:43 | -31.76684 | 141.99391 | 34172 ft | 478 kts | 278° |
| 2026-04-26 04:44 | -31.75337 | 141.91746 | 34175 ft | 478 kts | 278° |
| 2026-04-26 04:44 | -31.73984 | 141.84098 | 34172 ft | 478 kts | 278° |
| 2026-04-26 04:45 | -31.72629 | 141.76445 | 34172 ft | 479 kts | 276° |
| 2026-04-26 04:45 | -31.71267 | 141.68809 | 34176 ft | 481 kts | 277° |
| 2026-04-26 04:46 | -31.69887 | 141.61104 | 34171 ft | 483 kts | 277° |
| 2026-04-26 04:46 | -31.68500 | 141.53368 | 34175 ft | 485 kts | 277° |
| 2026-04-26 04:47 | -31.67100 | 141.45602 | 34177 ft | 486 kts | 277° |
| 2026-04-26 04:47 | -31.65693 | 141.37820 | 34174 ft | 487 kts | 277° |
| 2026-04-26 04:48 | -31.63580 | 141.26201 | 34158 ft | 487 kts | 274° |
| 2026-04-26 04:48 | -31.62160 | 141.18419 | 34166 ft | 486 kts | 274° |
| 2026-04-26 04:49 | -31.60749 | 141.10712 | 34135 ft | 485 kts | 274° |
| 2026-04-26 04:49 | -31.59324 | 141.02959 | 34156 ft | 485 kts | 272° |
| 2026-04-26 04:50 | -31.57898 | 140.95222 | 34159 ft | 484 kts | 272° |
| 2026-04-26 04:50 | -31.56476 | 140.87537 | 34094 ft | 485 kts | 271° |
| 2026-04-26 04:51 | -31.55041 | 140.79819 | 34171 ft | 484 kts | 270° |
| 2026-04-26 04:51 | -31.53601 | 140.72093 | 34167 ft | 484 kts | 270° |
| 2026-04-26 04:52 | -31.52159 | 140.64376 | 34117 ft | 485 kts | 269° |
| 2026-04-26 04:52 | -31.50716 | 140.56692 | 34157 ft | 485 kts | 270° |
| 2026-04-26 04:53 | -31.49261 | 140.48965 | 34161 ft | 485 kts | 270° |
| 2026-04-26 04:53 | -31.47800 | 140.41235 | 34113 ft | 486 kts | 270° |
| 2026-04-26 04:54 | -31.46344 | 140.33568 | 34151 ft | 485 kts | 270° |
| 2026-04-26 04:54 | -31.44874 | 140.25850 | 34159 ft | 484 kts | 270° |
| 2026-04-26 04:55 | -31.43404 | 140.18154 | 34105 ft | 483 kts | 271° |
| 2026-04-26 04:55 | -31.41944 | 140.10547 | 34139 ft | 481 kts | 271° |
| 2026-04-26 04:56 | -31.40476 | 140.02919 | 34136 ft | 479 kts | 271° |
| 2026-04-26 04:56 | -31.39009 | 139.95314 | 34106 ft | 477 kts | 271° |
| 2026-04-26 04:57 | -31.37554 | 139.87802 | 34120 ft | 474 kts | 271° |
| 2026-04-26 04:57 | -31.36093 | 139.80278 | 34130 ft | 473 kts | 271° |
| 2026-04-26 04:58 | -31.34632 | 139.72769 | 34089 ft | 473 kts | 272° |
| 2026-04-26 04:58 | -31.33165 | 139.65261 | 34119 ft | 472 kts | 272° |
| 2026-04-26 04:59 | -31.31704 | 139.57811 | 34125 ft | 473 kts | 272° |
| 2026-04-26 04:59 | -31.30228 | 139.50312 | 34106 ft | 473 kts | 272° |
| 2026-04-26 05:00 | -31.28746 | 139.42807 | 34119 ft | 474 kts | 272° |
| 2026-04-26 05:00 | -31.27257 | 139.35291 | 34123 ft | 475 kts | 272° |
| 2026-04-26 05:01 | -31.25760 | 139.27757 | 34122 ft | 476 kts | 273° |
| 2026-04-26 05:01 | -31.24253 | 139.20199 | 34119 ft | 477 kts | 273° |
| 2026-04-26 05:02 | -31.22749 | 139.12682 | 34112 ft | 478 kts | 273° |
| 2026-04-26 05:02 | -31.21228 | 139.05108 | 34108 ft | 478 kts | 273° |
| 2026-04-26 05:03 | -31.19712 | 138.97580 | 34111 ft | 478 kts | 273° |
| 2026-04-26 05:03 | -31.18181 | 138.90005 | 34113 ft | 478 kts | 273° |
| 2026-04-26 05:04 | -31.16659 | 138.82491 | 34105 ft | 478 kts | 274° |
| 2026-04-26 05:04 | -31.15123 | 138.74939 | 34110 ft | 477 kts | 274° |
| 2026-04-26 05:05 | -31.13583 | 138.67392 | 34119 ft | 477 kts | 274° |
| 2026-04-26 05:05 | -31.12051 | 138.59904 | 34110 ft | 476 kts | 274° |
| 2026-04-26 05:06 | -31.10508 | 138.52388 | 34117 ft | 476 kts | 274° |
| 2026-04-26 05:06 | -31.09224 | 138.46141 | 34114 ft | 476 kts | 274° |
| 2026-04-26 05:07 | -31.07674 | 138.38631 | 34118 ft | 475 kts | 275° |
| 2026-04-26 05:07 | -31.05869 | 138.29923 | 34118 ft | 475 kts | 275° |
| 2026-04-26 05:08 | -31.04567 | 138.23656 | 34125 ft | 475 kts | 275° |
| 2026-04-26 05:08 | -31.03015 | 138.16202 | 34112 ft | 475 kts | 275° |
| 2026-04-26 05:09 | -31.01452 | 138.08723 | 34120 ft | 475 kts | 275° |
| 2026-04-26 05:09 | -30.99877 | 138.01212 | 34096 ft | 476 kts | 275° |
| 2026-04-26 05:10 | -30.98311 | 137.93767 | 34114 ft | 475 kts | 276° |
| 2026-04-26 05:10 | -30.96729 | 137.86267 | 34120 ft | 475 kts | 276° |
| 2026-04-26 05:11 | -30.95146 | 137.78782 | 34100 ft | 475 kts | 276° |
| 2026-04-26 05:11 | -30.93568 | 137.71347 | 34116 ft | 475 kts | 276° |
| 2026-04-26 05:12 | -30.91976 | 137.63867 | 34126 ft | 475 kts | 276° |
| 2026-04-26 05:12 | -30.90377 | 137.56380 | 34105 ft | 475 kts | 277° |
| 2026-04-26 05:13 | -30.88785 | 137.48949 | 34118 ft | 475 kts | 277° |
| 2026-04-26 05:13 | -30.87180 | 137.41478 | 34123 ft | 476 kts | 277° |
| 2026-04-26 05:14 | -30.85567 | 137.33989 | 34113 ft | 476 kts | 277° |
| 2026-04-26 05:14 | -30.83962 | 137.26562 | 34120 ft | 476 kts | 277° |
| 2026-04-26 05:15 | -30.82341 | 137.19082 | 34120 ft | 477 kts | 277° |
| 2026-04-26 05:15 | -30.80714 | 137.11598 | 34129 ft | 477 kts | 277° |
| 2026-04-26 05:16 | -30.79080 | 137.04106 | 34126 ft | 477 kts | 277° |
| 2026-04-26 05:16 | -30.77442 | 136.96615 | 34111 ft | 477 kts | 278° |
| 2026-04-26 05:17 | -30.75812 | 136.89183 | 34134 ft | 477 kts | 278° |
| 2026-04-26 05:17 | -30.74163 | 136.81686 | 34125 ft | 478 kts | 278° |
| 2026-04-26 05:18 | -30.72514 | 136.74207 | 34126 ft | 477 kts | 278° |
| 2026-04-26 05:18 | -30.70869 | 136.66770 | 34133 ft | 477 kts | 278° |
| 2026-04-26 05:19 | -30.68743 | 136.59396 | 34129 ft | 485 kts | 287° |
| 2026-04-26 05:19 | -30.65995 | 136.52220 | 34125 ft | 486 kts | 288° |
| 2026-04-26 05:20 | -30.63242 | 136.45052 | 34142 ft | 485 kts | 288° |
| 2026-04-26 05:20 | -30.60530 | 136.37919 | 34144 ft | 486 kts | 288° |
| 2026-04-26 05:21 | -30.57809 | 136.30727 | 34142 ft | 486 kts | 288° |
| 2026-04-26 05:21 | -30.55090 | 136.23549 | 34148 ft | 486 kts | 288° |
| 2026-04-26 05:22 | -30.52365 | 136.16371 | 34137 ft | 486 kts | 288° |
| 2026-04-26 05:22 | -30.49654 | 136.09249 | 34147 ft | 486 kts | 288° |
| 2026-04-26 05:23 | -30.46921 | 136.02085 | 34149 ft | 485 kts | 288° |
| 2026-04-26 05:23 | -30.44187 | 135.94930 | 34139 ft | 485 kts | 289° |
| 2026-04-26 05:24 | -30.41451 | 135.87786 | 34155 ft | 484 kts | 289° |
| 2026-04-26 05:24 | -30.38716 | 135.80656 | 34155 ft | 484 kts | 289° |
| 2026-04-26 05:25 | -30.35981 | 135.73541 | 34156 ft | 483 kts | 289° |
| 2026-04-26 05:25 | -30.33262 | 135.66483 | 34155 ft | 483 kts | 289° |
| 2026-04-26 05:26 | -30.30523 | 135.59385 | 34157 ft | 482 kts | 289° |
| 2026-04-26 05:26 | -30.27781 | 135.52294 | 34151 ft | 482 kts | 289° |
| 2026-04-26 05:27 | -30.25040 | 135.45221 | 34159 ft | 481 kts | 289° |
| 2026-04-26 05:27 | -30.22313 | 135.38196 | 34151 ft | 481 kts | 290° |
| 2026-04-26 05:28 | -30.19563 | 135.31123 | 34164 ft | 481 kts | 290° |
| 2026-04-26 05:28 | -30.16827 | 135.24103 | 34164 ft | 481 kts | 290° |
| 2026-04-26 05:29 | -30.14071 | 135.17044 | 34168 ft | 481 kts | 290° |
| 2026-04-26 05:29 | -30.11309 | 135.09984 | 34166 ft | 482 kts | 290° |
| 2026-04-26 05:30 | -30.08546 | 135.02934 | 34166 ft | 482 kts | 290° |
| 2026-04-26 05:30 | -30.05777 | 134.95881 | 34158 ft | 482 kts | 290° |
| 2026-04-26 05:31 | -30.03024 | 134.88886 | 34173 ft | 481 kts | 290° |
| 2026-04-26 05:31 | -30.00249 | 134.81848 | 34163 ft | 481 kts | 290° |
| 2026-04-26 05:32 | -29.97471 | 134.74813 | 34159 ft | 481 kts | 290° |
| 2026-04-26 05:32 | -29.94691 | 134.67789 | 34174 ft | 481 kts | 290° |
| 2026-04-26 05:33 | -29.91922 | 134.60802 | 34176 ft | 482 kts | 290° |
| 2026-04-26 05:33 | -29.89130 | 134.53775 | 34171 ft | 481 kts | 291° |
| 2026-04-26 05:34 | -29.86334 | 134.46749 | 34171 ft | 482 kts | 291° |
| 2026-04-26 05:34 | -29.83536 | 134.39730 | 34170 ft | 482 kts | 291° |
| 2026-04-26 05:35 | -29.80750 | 134.32756 | 34178 ft | 482 kts | 291° |
| 2026-04-26 05:35 | -29.77943 | 134.25743 | 34162 ft | 482 kts | 291° |
| 2026-04-26 05:36 | -29.75134 | 134.18738 | 34173 ft | 481 kts | 291° |
| 2026-04-26 05:36 | -29.72320 | 134.11733 | 34180 ft | 481 kts | 291° |
| 2026-04-26 05:37 | -29.69522 | 134.04782 | 34180 ft | 482 kts | 291° |
| 2026-04-26 05:37 | -29.66701 | 133.97784 | 34182 ft | 481 kts | 291° |
| 2026-04-26 05:38 | -29.63878 | 133.90796 | 34179 ft | 481 kts | 291° |
| 2026-04-26 05:38 | -29.61052 | 133.83813 | 34178 ft | 481 kts | 291° |
| 2026-04-26 05:39 | -29.58245 | 133.76891 | 34167 ft | 480 kts | 292° |
| 2026-04-26 05:39 | -29.55421 | 133.69939 | 34180 ft | 480 kts | 292° |
| 2026-04-26 05:40 | -29.52591 | 133.62986 | 34174 ft | 480 kts | 292° |
| 2026-04-26 05:40 | -29.49760 | 133.56040 | 34181 ft | 480 kts | 292° |
| 2026-04-26 05:41 | -29.46919 | 133.49084 | 34171 ft | 480 kts | 292° |
| 2026-04-26 05:41 | -29.44092 | 133.42175 | 34181 ft | 481 kts | 292° |
| 2026-04-26 05:42 | -29.41243 | 133.35227 | 34185 ft | 481 kts | 292° |
| 2026-04-26 05:42 | -29.38383 | 133.28264 | 34182 ft | 482 kts | 292° |
| 2026-04-26 05:43 | -29.35536 | 133.21344 | 34164 ft | 482 kts | 292° |
| 2026-04-26 05:43 | -29.32666 | 133.14383 | 34180 ft | 482 kts | 292° |
| 2026-04-26 05:44 | -29.29800 | 133.07442 | 34184 ft | 482 kts | 292° |
| 2026-04-26 05:44 | -29.26927 | 133.00496 | 34175 ft | 482 kts | 293° |
| 2026-04-26 05:45 | -29.24068 | 132.93598 | 34181 ft | 482 kts | 293° |
| 2026-04-26 05:45 | -29.21185 | 132.86655 | 34184 ft | 482 kts | 293° |
| 2026-04-26 05:46 | -29.18304 | 132.79729 | 34183 ft | 482 kts | 293° |
| 2026-04-26 05:46 | -29.15431 | 132.72833 | 34180 ft | 482 kts | 293° |
| 2026-04-26 05:47 | -29.12540 | 132.65907 | 34184 ft | 482 kts | 293° |
| 2026-04-26 05:47 | -29.09642 | 132.58976 | 34181 ft | 483 kts | 293° |
| 2026-04-26 05:48 | -29.06736 | 132.52041 | 34182 ft | 483 kts | 294° |
| 2026-04-26 05:48 | -29.03844 | 132.45150 | 34182 ft | 483 kts | 294° |
| 2026-04-26 05:49 | -28.99467 | 132.34744 | 34198 ft | 483 kts | 294° |
| 2026-04-26 05:50 | -28.96567 | 132.27864 | 34181 ft | 483 kts | 294° |
| 2026-04-26 05:50 | -28.93643 | 132.20941 | 34191 ft | 483 kts | 294° |
| 2026-04-26 05:51 | -28.90718 | 132.14025 | 34191 ft | 483 kts | 294° |
| 2026-04-26 05:51 | -28.87792 | 132.07122 | 34197 ft | 482 kts | 294° |
| 2026-04-26 05:52 | -28.84863 | 132.00223 | 34177 ft | 482 kts | 294° |
| 2026-04-26 05:52 | -28.81954 | 131.93383 | 34172 ft | 481 kts | 294° |
| 2026-04-26 05:53 | -28.79030 | 131.86520 | 34173 ft | 480 kts | 295° |
| 2026-04-26 05:53 | -28.76112 | 131.79683 | 34174 ft | 479 kts | 295° |
| 2026-04-26 05:54 | -28.73209 | 131.72892 | 34197 ft | 479 kts | 295° |
| 2026-04-26 05:54 | -28.70288 | 131.66070 | 34181 ft | 478 kts | 295° |
| 2026-04-26 05:55 | -28.67365 | 131.59257 | 34187 ft | 478 kts | 295° |
| 2026-04-26 05:55 | -28.64932 | 131.53592 | 34193 ft | 478 kts | 295° |
| 2026-04-26 05:56 | -28.61527 | 131.45684 | 34192 ft | 478 kts | 295° |
| 2026-04-26 05:56 | -28.59070 | 131.39985 | 34186 ft | 478 kts | 295° |
| 2026-04-26 05:57 | -28.56152 | 131.33223 | 34198 ft | 478 kts | 295° |
| 2026-04-26 05:57 | -28.53215 | 131.26432 | 34183 ft | 478 kts | 295° |
| 2026-04-26 05:58 | -28.50264 | 131.19653 | 34165 ft | 476 kts | 297° |
| 2026-04-26 05:58 | -28.46935 | 131.13204 | 34183 ft | 475 kts | 300° |
| 2026-04-26 05:59 | -28.43508 | 131.06778 | 34182 ft | 475 kts | 300° |
| 2026-04-26 05:59 | -28.40084 | 131.00338 | 34190 ft | 475 kts | 300° |
| 2026-04-26 06:00 | -28.36693 | 130.93939 | 34187 ft | 475 kts | 300° |
| 2026-04-26 06:00 | -28.33278 | 130.87489 | 34191 ft | 476 kts | 301° |
| 2026-04-26 06:01 | -28.29864 | 130.81052 | 34186 ft | 475 kts | 301° |
| 2026-04-26 06:01 | -28.26454 | 130.74635 | 34178 ft | 474 kts | 300° |
| 2026-04-26 06:02 | -28.23067 | 130.68271 | 34178 ft | 474 kts | 301° |
| 2026-04-26 06:02 | -28.19655 | 130.61870 | 34173 ft | 474 kts | 300° |
| 2026-04-26 06:03 | -28.16240 | 130.55472 | 34176 ft | 473 kts | 301° |
| 2026-04-26 06:03 | -28.12840 | 130.49113 | 34169 ft | 474 kts | 301° |
| 2026-04-26 06:04 | -28.09412 | 130.42709 | 34178 ft | 474 kts | 301° |
| 2026-04-26 06:04 | -28.06007 | 130.36360 | 34182 ft | 474 kts | 301° |
| 2026-04-26 06:05 | -28.02577 | 130.29973 | 34174 ft | 473 kts | 301° |
| 2026-04-26 06:05 | -27.99151 | 130.23602 | 34188 ft | 473 kts | 301° |
| 2026-04-26 06:06 | -27.95719 | 130.17232 | 34172 ft | 473 kts | 301° |
| 2026-04-26 06:06 | -27.92316 | 130.10922 | 34168 ft | 472 kts | 300° |
| 2026-04-26 06:07 | -27.88885 | 130.04572 | 34174 ft | 472 kts | 300° |
| 2026-04-26 06:07 | -27.85454 | 129.98232 | 34171 ft | 473 kts | 300° |
| 2026-04-26 06:08 | -27.82013 | 129.91880 | 34169 ft | 473 kts | 300° |
| 2026-04-26 06:08 | -27.78590 | 129.85571 | 34162 ft | 474 kts | 299° |
| 2026-04-26 06:09 | -27.75139 | 129.79222 | 34171 ft | 474 kts | 298° |
| 2026-04-26 06:09 | -27.71681 | 129.72868 | 34168 ft | 474 kts | 298° |
| 2026-04-26 06:10 | -27.68224 | 129.66525 | 34170 ft | 475 kts | 298° |
| 2026-04-26 06:10 | -27.64785 | 129.60224 | 34153 ft | 475 kts | 298° |
| 2026-04-26 06:11 | -27.61313 | 129.53875 | 34161 ft | 474 kts | 297° |
| 2026-04-26 06:11 | -27.57845 | 129.47539 | 34157 ft | 474 kts | 297° |
| 2026-04-26 06:12 | -27.54394 | 129.41244 | 34157 ft | 474 kts | 297° |
| 2026-04-26 06:12 | -27.50927 | 129.34929 | 34153 ft | 473 kts | 297° |
| 2026-04-26 06:13 | -27.47458 | 129.28621 | 34153 ft | 473 kts | 297° |
| 2026-04-26 06:13 | -27.43991 | 129.22323 | 34151 ft | 473 kts | 297° |
| 2026-04-26 06:14 | -27.40524 | 129.16036 | 34147 ft | 472 kts | 297° |
| 2026-04-26 06:14 | -27.37079 | 129.09797 | 34146 ft | 472 kts | 296° |
| 2026-04-26 06:15 | -27.33609 | 129.03522 | 34144 ft | 471 kts | 296° |
| 2026-04-26 06:15 | -27.30145 | 128.97267 | 34142 ft | 470 kts | 296° |
| 2026-04-26 06:16 | -27.26682 | 128.91022 | 34149 ft | 470 kts | 296° |
| 2026-04-26 06:16 | -27.23242 | 128.84828 | 34143 ft | 469 kts | 296° |
| 2026-04-26 06:17 | -27.19785 | 128.78612 | 34144 ft | 468 kts | 296° |
| 2026-04-26 06:17 | -27.16331 | 128.72412 | 34144 ft | 467 kts | 296° |
| 2026-04-26 06:18 | -27.12873 | 128.66211 | 34139 ft | 467 kts | 296° |
| 2026-04-26 06:18 | -27.09443 | 128.60069 | 34138 ft | 466 kts | 296° |
| 2026-04-26 06:19 | -27.05990 | 128.53897 | 34123 ft | 466 kts | 295° |
| 2026-04-26 06:19 | -27.02541 | 128.47738 | 34130 ft | 465 kts | 295° |
| 2026-04-26 06:20 | -26.99118 | 128.41635 | 34129 ft | 464 kts | 295° |
| 2026-04-26 06:20 | -26.95678 | 128.35509 | 34136 ft | 464 kts | 295° |
| 2026-04-26 06:21 | -26.92254 | 128.29420 | 34128 ft | 464 kts | 295° |
| 2026-04-26 06:21 | -26.88810 | 128.23304 | 34125 ft | 463 kts | 295° |
| 2026-04-26 06:22 | -26.85377 | 128.17217 | 34128 ft | 462 kts | 295° |
| 2026-04-26 06:22 | -26.81942 | 128.11135 | 34121 ft | 461 kts | 295° |
| 2026-04-26 06:23 | -26.78503 | 128.05054 | 34119 ft | 461 kts | 295° |
| 2026-04-26 06:23 | -26.75070 | 127.98991 | 34095 ft | 461 kts | 294° |
| 2026-04-26 06:24 | -26.71634 | 127.92929 | 34115 ft | 461 kts | 294° |
| 2026-04-26 06:24 | -26.68210 | 127.86898 | 34114 ft | 462 kts | 294° |
| 2026-04-26 06:25 | -26.64754 | 127.80818 | 34120 ft | 463 kts | 294° |
| 2026-04-26 06:25 | -26.61282 | 127.74720 | 34113 ft | 464 kts | 295° |
| 2026-04-26 06:26 | -26.57832 | 127.68668 | 34100 ft | 465 kts | 295° |
| 2026-04-26 06:26 | -26.54348 | 127.62565 | 34103 ft | 466 kts | 295° |
| 2026-04-26 06:27 | -26.50854 | 127.56453 | 34111 ft | 467 kts | 295° |
| 2026-04-26 06:27 | -26.47345 | 127.50322 | 34105 ft | 468 kts | 295° |
| 2026-04-26 06:28 | -26.43835 | 127.44199 | 34084 ft | 469 kts | 294° |
| 2026-04-26 06:28 | -26.40316 | 127.38070 | 34100 ft | 469 kts | 294° |
| 2026-04-26 06:29 | -26.36818 | 127.31983 | 34095 ft | 469 kts | 294° |
| 2026-04-26 06:29 | -26.33290 | 127.25854 | 34118 ft | 469 kts | 294° |
| 2026-04-26 06:30 | -26.29758 | 127.19725 | 34110 ft | 468 kts | 294° |
| 2026-04-26 06:30 | -26.26238 | 127.13627 | 34098 ft | 467 kts | 294° |
| 2026-04-26 06:31 | -26.22717 | 127.07532 | 34099 ft | 467 kts | 294° |
| 2026-04-26 06:31 | -26.19222 | 127.01491 | 34097 ft | 466 kts | 294° |
| 2026-04-26 06:32 | -26.15700 | 126.95412 | 34090 ft | 466 kts | 294° |
| 2026-04-26 06:32 | -26.12184 | 126.89351 | 34087 ft | 466 kts | 295° |
| 2026-04-26 06:33 | -26.08680 | 126.83320 | 34090 ft | 466 kts | 295° |
| 2026-04-26 06:33 | -26.05158 | 126.77263 | 34093 ft | 466 kts | 295° |
| 2026-04-26 06:34 | -26.01634 | 126.71212 | 34089 ft | 466 kts | 295° |
| 2026-04-26 06:34 | -25.98121 | 126.65188 | 34085 ft | 466 kts | 295° |
| 2026-04-26 06:35 | -25.94583 | 126.59129 | 34078 ft | 467 kts | 295° |
| 2026-04-26 06:35 | -25.91044 | 126.53077 | 34082 ft | 467 kts | 295° |
| 2026-04-26 06:36 | -25.87499 | 126.47023 | 34076 ft | 467 kts | 296° |
| 2026-04-26 06:36 | -25.83975 | 126.41011 | 34076 ft | 467 kts | 296° |
| 2026-04-26 06:37 | -25.80425 | 126.34964 | 34077 ft | 467 kts | 296° |
| 2026-04-26 06:37 | -25.76868 | 126.28914 | 34067 ft | 467 kts | 296° |
| 2026-04-26 06:38 | -25.73313 | 126.22872 | 34073 ft | 467 kts | 296° |
| 2026-04-26 06:38 | -25.69778 | 126.16874 | 34073 ft | 467 kts | 296° |
| 2026-04-26 06:39 | -25.66214 | 126.10834 | 34073 ft | 467 kts | 296° |
| 2026-04-26 06:39 | -25.62648 | 126.04799 | 34074 ft | 468 kts | 296° |
| 2026-04-26 06:40 | -25.59078 | 125.98764 | 34064 ft | 467 kts | 296° |
| 2026-04-26 06:40 | -25.55527 | 125.92770 | 34064 ft | 467 kts | 296° |
| 2026-04-26 06:41 | -25.51955 | 125.86748 | 34057 ft | 467 kts | 296° |
| 2026-04-26 06:41 | -25.48377 | 125.80724 | 34061 ft | 467 kts | 296° |
| 2026-04-26 06:42 | -25.44805 | 125.74716 | 34043 ft | 467 kts | 297° |
| 2026-04-26 06:42 | -25.41251 | 125.68747 | 34055 ft | 467 kts | 297° |
| 2026-04-26 06:43 | -25.37672 | 125.62743 | 34055 ft | 467 kts | 297° |
| 2026-04-26 06:43 | -25.34085 | 125.56734 | 34049 ft | 467 kts | 297° |
| 2026-04-26 06:44 | -25.30519 | 125.50767 | 34047 ft | 468 kts | 297° |
| 2026-04-26 06:44 | -25.26931 | 125.44772 | 34040 ft | 468 kts | 297° |
| 2026-04-26 06:45 | -25.23919 | 125.39745 | 34053 ft | 468 kts | 297° |
| 2026-04-26 06:45 | -25.20344 | 125.33784 | 34058 ft | 468 kts | 297° |
| 2026-04-26 06:46 | -25.16749 | 125.27797 | 34042 ft | 468 kts | 297° |
| 2026-04-26 06:46 | -25.13143 | 125.21802 | 34053 ft | 468 kts | 297° |
| 2026-04-26 06:47 | -25.09555 | 125.15841 | 34040 ft | 468 kts | 297° |
| 2026-04-26 06:47 | -25.05952 | 125.09864 | 34046 ft | 467 kts | 297° |
| 2026-04-26 06:48 | -25.02351 | 125.03894 | 34043 ft | 467 kts | 297° |
| 2026-04-26 06:48 | -24.98758 | 124.97912 | 34047 ft | 466 kts | 297° |
| 2026-04-26 06:49 | -24.95314 | 124.91904 | 34029 ft | 465 kts | 296° |
| 2026-04-26 06:49 | -24.91884 | 124.85848 | 34028 ft | 465 kts | 296° |
| 2026-04-26 06:50 | -24.88466 | 124.79846 | 34033 ft | 465 kts | 296° |
| 2026-04-26 06:50 | -24.85016 | 124.73820 | 34035 ft | 464 kts | 297° |
| 2026-04-26 06:51 | -24.81564 | 124.67809 | 34032 ft | 464 kts | 297° |
| 2026-04-26 06:51 | -24.76376 | 124.58788 | 34037 ft | 464 kts | 297° |
| 2026-04-26 06:52 | -24.72936 | 124.52814 | 34023 ft | 464 kts | 297° |
| 2026-04-26 06:52 | -24.69473 | 124.46808 | 34027 ft | 464 kts | 297° |
| 2026-04-26 06:53 | -24.66010 | 124.40811 | 34024 ft | 464 kts | 297° |
| 2026-04-26 06:53 | -24.62573 | 124.34864 | 34024 ft | 463 kts | 297° |
| 2026-04-26 06:54 | -24.59110 | 124.28882 | 34019 ft | 463 kts | 297° |
| 2026-04-26 06:54 | -24.55640 | 124.22892 | 34025 ft | 463 kts | 298° |
| 2026-04-26 06:55 | -24.52173 | 124.16917 | 34021 ft | 463 kts | 298° |
| 2026-04-26 06:55 | -24.48731 | 124.10991 | 34022 ft | 463 kts | 298° |
| 2026-04-26 06:56 | -24.45267 | 124.05036 | 34021 ft | 463 kts | 298° |
| 2026-04-26 06:56 | -24.41804 | 123.99088 | 34023 ft | 462 kts | 298° |
| 2026-04-26 06:57 | -24.38327 | 123.93125 | 34004 ft | 462 kts | 298° |
| 2026-04-26 06:57 | -24.34877 | 123.87214 | 34021 ft | 462 kts | 298° |
| 2026-04-26 06:58 | -24.31409 | 123.81280 | 34016 ft | 462 kts | 298° |
| 2026-04-26 06:58 | -24.27931 | 123.75335 | 34016 ft | 462 kts | 298° |
| 2026-04-26 06:59 | -24.24455 | 123.69403 | 34012 ft | 463 kts | 298° |
| 2026-04-26 06:59 | -24.20974 | 123.63468 | 34008 ft | 463 kts | 298° |
| 2026-04-26 07:00 | -24.17503 | 123.57558 | 34008 ft | 463 kts | 298° |
| 2026-04-26 07:00 | -24.14016 | 123.51628 | 34014 ft | 463 kts | 298° |
| 2026-04-26 07:01 | -24.10523 | 123.45695 | 34008 ft | 463 kts | 298° |
| 2026-04-26 07:01 | -24.07030 | 123.39768 | 34005 ft | 463 kts | 298° |
| 2026-04-26 07:02 | -24.03561 | 123.33889 | 34005 ft | 463 kts | 298° |
| 2026-04-26 07:02 | -24.00065 | 123.27972 | 33999 ft | 463 kts | 298° |
| 2026-04-26 07:03 | -23.96562 | 123.22049 | 34001 ft | 462 kts | 298° |
| 2026-04-26 07:03 | -23.93068 | 123.16149 | 34002 ft | 462 kts | 299° |
| 2026-04-26 07:04 | -23.89567 | 123.10244 | 34003 ft | 462 kts | 299° |
| 2026-04-26 07:04 | -23.86086 | 123.04380 | 33999 ft | 463 kts | 299° |
| 2026-04-26 07:05 | -23.82582 | 122.98484 | 34001 ft | 463 kts | 299° |
| 2026-04-26 07:05 | -23.79076 | 122.92592 | 34001 ft | 463 kts | 299° |
| 2026-04-26 07:06 | -23.75557 | 122.86685 | 34001 ft | 463 kts | 299° |
| 2026-04-26 07:06 | -23.72039 | 122.80787 | 34001 ft | 463 kts | 299° |
| 2026-04-26 07:07 | -23.68545 | 122.74936 | 34000 ft | 463 kts | 299° |
| 2026-04-26 07:07 | -23.65027 | 122.69051 | 34000 ft | 462 kts | 299° |
| 2026-04-26 07:08 | -23.61510 | 122.63174 | 33997 ft | 462 kts | 299° |
| 2026-04-26 07:08 | -23.57986 | 122.57293 | 34003 ft | 462 kts | 299° |
| 2026-04-26 07:09 | -23.54492 | 122.51468 | 34000 ft | 461 kts | 299° |
| 2026-04-26 07:09 | -23.50976 | 122.45615 | 33996 ft | 461 kts | 299° |
| 2026-04-26 07:11 | -23.42176 | 122.30991 | 34005 ft | 461 kts | 300° |
| 2026-04-26 07:11 | -23.38649 | 122.25142 | 33999 ft | 461 kts | 300° |
| 2026-04-26 07:12 | -23.35145 | 122.19339 | 34001 ft | 461 kts | 300° |
| 2026-04-26 07:12 | -23.31617 | 122.13502 | 33998 ft | 461 kts | 300° |
| 2026-04-26 07:13 | -23.28085 | 122.07664 | 33997 ft | 461 kts | 300° |
| 2026-04-26 07:13 | -23.24577 | 122.01873 | 33992 ft | 461 kts | 300° |
| 2026-04-26 07:14 | -23.21051 | 121.96060 | 33997 ft | 460 kts | 300° |
| 2026-04-26 07:14 | -23.17512 | 121.90231 | 34000 ft | 460 kts | 300° |
| 2026-04-26 07:15 | -23.13983 | 121.84425 | 33995 ft | 460 kts | 300° |
| 2026-04-26 07:15 | -23.10478 | 121.78664 | 33996 ft | 460 kts | 300° |
| 2026-04-26 07:16 | -23.06943 | 121.72861 | 33996 ft | 460 kts | 300° |
| 2026-04-26 07:16 | -23.03406 | 121.67061 | 33987 ft | 460 kts | 300° |
| 2026-04-26 07:17 | -22.99892 | 121.61305 | 33991 ft | 459 kts | 300° |
| 2026-04-26 07:17 | -22.96357 | 121.55520 | 33992 ft | 459 kts | 300° |
| 2026-04-26 07:18 | -22.92813 | 121.49742 | 33995 ft | 459 kts | 300° |
| 2026-04-26 07:18 | -22.89203 | 121.44002 | 33995 ft | 460 kts | 301° |
| 2026-04-26 07:19 | -22.85581 | 121.38286 | 33994 ft | 460 kts | 301° |
| 2026-04-26 07:19 | -22.81960 | 121.32566 | 33984 ft | 459 kts | 301° |
| 2026-04-26 07:20 | -22.78369 | 121.26885 | 33990 ft | 459 kts | 301° |
| 2026-04-26 07:20 | -22.74747 | 121.21158 | 33985 ft | 459 kts | 301° |
| 2026-04-26 07:21 | -22.71149 | 121.15474 | 33987 ft | 459 kts | 301° |
| 2026-04-26 07:21 | -22.67533 | 121.09768 | 33991 ft | 459 kts | 301° |
| 2026-04-26 07:22 | -22.63908 | 121.04055 | 33990 ft | 459 kts | 301° |
| 2026-04-26 07:22 | -22.60287 | 120.98353 | 33991 ft | 459 kts | 301° |
| 2026-04-26 07:23 | -22.56664 | 120.92656 | 33984 ft | 459 kts | 302° |
| 2026-04-26 07:23 | -22.53055 | 120.86986 | 33987 ft | 460 kts | 302° |
| 2026-04-26 07:24 | -22.49423 | 120.81287 | 33983 ft | 460 kts | 302° |
| 2026-04-26 07:24 | -22.45786 | 120.75586 | 33982 ft | 460 kts | 302° |
| 2026-04-26 07:25 | -22.42165 | 120.69917 | 33979 ft | 460 kts | 302° |
| 2026-04-26 07:25 | -22.38519 | 120.64213 | 33979 ft | 460 kts | 302° |
| 2026-04-26 07:26 | -22.34879 | 120.58526 | 33986 ft | 459 kts | 302° |
| 2026-04-26 07:26 | -22.31238 | 120.52844 | 33980 ft | 459 kts | 302° |
| 2026-04-26 07:27 | -22.27625 | 120.47209 | 33981 ft | 459 kts | 302° |
| 2026-04-26 07:27 | -22.23987 | 120.41541 | 33980 ft | 459 kts | 302° |
| 2026-04-26 07:28 | -22.20345 | 120.35875 | 33964 ft | 459 kts | 302° |
| 2026-04-26 07:28 | -22.16700 | 120.30210 | 33985 ft | 460 kts | 302° |
| 2026-04-26 07:29 | -22.13066 | 120.24568 | 33993 ft | 461 kts | 302° |
| 2026-04-26 07:29 | -22.09397 | 120.18878 | 33997 ft | 462 kts | 302° |
| 2026-04-26 07:30 | -22.05716 | 120.13175 | 33968 ft | 463 kts | 302° |
| 2026-04-26 07:30 | -22.02652 | 120.08432 | 33968 ft | 464 kts | 303° |
| 2026-04-26 07:31 | -21.98351 | 120.01782 | 33962 ft | 465 kts | 303° |
| 2026-04-26 07:31 | -21.95246 | 119.96986 | 33991 ft | 465 kts | 303° |
| 2026-04-26 07:32 | -21.91563 | 119.91303 | 33987 ft | 466 kts | 303° |
| 2026-04-26 07:32 | -21.87841 | 119.85565 | 33982 ft | 467 kts | 303° |
| 2026-04-26 07:33 | -21.84115 | 119.79828 | 33978 ft | 467 kts | 303° |
| 2026-04-26 07:33 | -21.80388 | 119.74095 | 33958 ft | 466 kts | 303° |
| 2026-04-26 07:34 | -21.76693 | 119.68417 | 33970 ft | 465 kts | 303° |
| 2026-04-26 07:34 | -21.72978 | 119.62715 | 33960 ft | 464 kts | 303° |
| 2026-04-26 07:35 | -21.69270 | 119.57028 | 33958 ft | 463 kts | 303° |
| 2026-04-26 07:35 | -21.65561 | 119.51346 | 33969 ft | 463 kts | 303° |
| 2026-04-26 07:36 | -21.61871 | 119.45700 | 33975 ft | 463 kts | 304° |
| 2026-04-26 07:36 | -21.58153 | 119.40017 | 33969 ft | 464 kts | 304° |
| 2026-04-26 07:37 | -21.54458 | 119.34375 | 33942 ft | 465 kts | 303° |
| 2026-04-26 07:37 | -21.50729 | 119.28686 | 33971 ft | 466 kts | 303° |
| 2026-04-26 07:38 | -21.46987 | 119.22981 | 33965 ft | 468 kts | 304° |
| 2026-04-26 07:38 | -21.43222 | 119.17251 | 33963 ft | 470 kts | 304° |
| 2026-04-26 07:39 | -21.39462 | 119.11531 | 33961 ft | 471 kts | 304° |
| 2026-04-26 07:39 | -21.35672 | 119.05774 | 33952 ft | 472 kts | 304° |
| 2026-04-26 07:40 | -21.31878 | 119.00017 | 33941 ft | 472 kts | 304° |
| 2026-04-26 07:40 | -21.28084 | 118.94265 | 33953 ft | 471 kts | 304° |
| 2026-04-26 07:41 | -21.24293 | 118.88524 | 33952 ft | 471 kts | 304° |
| 2026-04-26 07:41 | -21.20512 | 118.82802 | 33952 ft | 470 kts | 304° |
| 2026-04-26 07:42 | -21.16757 | 118.77127 | 33935 ft | 469 kts | 304° |
| 2026-04-26 07:42 | -21.12979 | 118.71423 | 33945 ft | 469 kts | 304° |
| 2026-04-26 07:43 | -21.09203 | 118.65727 | 33944 ft | 469 kts | 304° |
| 2026-04-26 07:43 | -21.05425 | 118.60034 | 33938 ft | 469 kts | 304° |
| 2026-04-26 07:44 | -21.01646 | 118.54346 | 33939 ft | 469 kts | 304° |
| 2026-04-26 07:44 | -20.97859 | 118.48649 | 33928 ft | 469 kts | 304° |
| 2026-04-26 07:45 | -20.94074 | 118.42964 | 33933 ft | 469 kts | 304° |
| 2026-04-26 07:45 | -20.90303 | 118.37304 | 33937 ft | 469 kts | 304° |
| 2026-04-26 07:46 | -20.86508 | 118.31615 | 33938 ft | 469 kts | 304° |
| 2026-04-26 07:46 | -20.82714 | 118.25932 | 33937 ft | 468 kts | 304° |
| 2026-04-26 07:47 | -20.78955 | 118.20307 | 33939 ft | 467 kts | 304° |
| 2026-04-26 07:47 | -20.75176 | 118.14658 | 33934 ft | 466 kts | 304° |
| 2026-04-26 07:48 | -20.71404 | 118.09024 | 33939 ft | 466 kts | 304° |
| 2026-04-26 07:48 | -20.67631 | 118.03395 | 33944 ft | 466 kts | 305° |
| 2026-04-26 07:49 | -20.63851 | 117.97762 | 33935 ft | 466 kts | 305° |
| 2026-04-26 07:49 | -20.60101 | 117.92178 | 33947 ft | 465 kts | 305° |
| 2026-04-26 07:50 | -20.54434 | 117.83750 | 33949 ft | 466 kts | 305° |
| 2026-04-26 07:50 | -20.50651 | 117.78130 | 33943 ft | 466 kts | 305° |
| 2026-04-26 07:51 | -20.46860 | 117.72506 | 33946 ft | 466 kts | 305° |
| 2026-04-26 07:51 | -20.43088 | 117.66914 | 33951 ft | 467 kts | 305° |
| 2026-04-26 07:52 | -20.39290 | 117.61288 | 33942 ft | 467 kts | 305° |
| 2026-04-26 07:52 | -20.35494 | 117.55672 | 33948 ft | 467 kts | 305° |
| 2026-04-26 07:53 | -20.31694 | 117.50054 | 33943 ft | 467 kts | 305° |
| 2026-04-26 07:53 | -20.27885 | 117.44429 | 33953 ft | 467 kts | 305° |
| 2026-04-26 07:54 | -20.24104 | 117.38850 | 33955 ft | 467 kts | 305° |
| 2026-04-26 07:54 | -20.20288 | 117.33226 | 33951 ft | 467 kts | 305° |
| 2026-04-26 07:55 | -20.16481 | 117.27620 | 33945 ft | 467 kts | 305° |
| 2026-04-26 07:55 | -20.12669 | 117.22013 | 33946 ft | 467 kts | 305° |
| 2026-04-26 07:56 | -20.08858 | 117.16410 | 33954 ft | 467 kts | 305° |
| 2026-04-26 07:56 | -20.05073 | 117.10854 | 33951 ft | 466 kts | 305° |
| 2026-04-26 07:57 | -20.01265 | 117.05268 | 33956 ft | 466 kts | 305° |
| 2026-04-26 07:57 | -19.97457 | 116.99686 | 33950 ft | 465 kts | 305° |
| 2026-04-26 07:58 | -19.93658 | 116.94123 | 33948 ft | 464 kts | 305° |
| 2026-04-26 07:58 | -19.89879 | 116.88596 | 33943 ft | 464 kts | 305° |
| 2026-04-26 07:59 | -19.86080 | 116.83043 | 33957 ft | 464 kts | 305° |
| 2026-04-26 07:59 | -19.82299 | 116.77523 | 33950 ft | 464 kts | 305° |
| 2026-04-26 08:00 | -19.78500 | 116.71982 | 33957 ft | 463 kts | 305° |
| 2026-04-26 08:00 | -19.74698 | 116.66440 | 33954 ft | 463 kts | 305° |
| 2026-04-26 08:01 | -19.70894 | 116.60901 | 33951 ft | 464 kts | 305° |
| 2026-04-26 08:01 | -19.67108 | 116.55393 | 33949 ft | 463 kts | 304° |
| 2026-04-26 08:02 | -19.63310 | 116.49873 | 33951 ft | 463 kts | 304° |
| 2026-04-26 08:02 | -19.59517 | 116.44365 | 33951 ft | 462 kts | 304° |
| 2026-04-26 08:03 | -19.55731 | 116.38873 | 33949 ft | 461 kts | 304° |
| 2026-04-26 08:03 | -19.51949 | 116.33391 | 33950 ft | 460 kts | 304° |
| 2026-04-26 08:04 | -19.48172 | 116.27922 | 33949 ft | 460 kts | 304° |
| 2026-04-26 08:04 | -19.44420 | 116.22493 | 33953 ft | 460 kts | 304° |
| 2026-04-26 08:05 | -19.40636 | 116.17023 | 33950 ft | 460 kts | 304° |
| 2026-04-26 08:05 | -19.36851 | 116.11556 | 33951 ft | 460 kts | 304° |
| 2026-04-26 08:06 | -19.33055 | 116.06079 | 33947 ft | 460 kts | 304° |
| 2026-04-26 08:06 | -19.29285 | 116.00644 | 33948 ft | 460 kts | 304° |
| 2026-04-26 08:07 | -19.25484 | 115.95169 | 33941 ft | 461 kts | 304° |
| 2026-04-26 08:07 | -19.21684 | 115.89700 | 33948 ft | 461 kts | 304° |
| 2026-04-26 08:08 | -19.17871 | 115.84218 | 33942 ft | 461 kts | 304° |
| 2026-04-26 08:08 | -19.14095 | 115.78793 | 33933 ft | 459 kts | 304° |
| 2026-04-26 08:09 | -19.10314 | 115.73367 | 33941 ft | 457 kts | 304° |
| 2026-04-26 08:09 | -19.06546 | 115.67963 | 33938 ft | 455 kts | 304° |
| 2026-04-26 08:10 | -19.02787 | 115.62576 | 33930 ft | 454 kts | 305° |
| 2026-04-26 08:10 | -18.99028 | 115.57194 | 33941 ft | 455 kts | 305° |
| 2026-04-26 08:11 | -18.95284 | 115.51838 | 33942 ft | 456 kts | 305° |
| 2026-04-26 08:11 | -18.91511 | 115.46443 | 33934 ft | 458 kts | 305° |
| 2026-04-26 08:12 | -18.87714 | 115.41020 | 33939 ft | 459 kts | 304° |
| 2026-04-26 08:12 | -18.84196 | 115.35393 | 33943 ft | 459 kts | 301° |
| 2026-04-26 08:13 | -18.80821 | 115.29707 | 33944 ft | 459 kts | 301° |
| 2026-04-26 08:13 | -18.77421 | 115.23995 | 33936 ft | 459 kts | 301° |
| 2026-04-26 08:14 | -18.74007 | 115.18283 | 33938 ft | 459 kts | 301° |
| 2026-04-26 08:14 | -18.70615 | 115.12623 | 33940 ft | 458 kts | 301° |
| 2026-04-26 08:15 | -18.67206 | 115.06941 | 33921 ft | 458 kts | 301° |
| 2026-04-26 08:15 | -18.63803 | 115.01274 | 33937 ft | 457 kts | 301° |
| 2026-04-26 08:16 | -18.60398 | 114.95608 | 33939 ft | 457 kts | 301° |
| 2026-04-26 08:16 | -18.56991 | 114.89943 | 33936 ft | 457 kts | 301° |
| 2026-04-26 08:17 | -18.54158 | 114.85238 | 33933 ft | 457 kts | 301° |
| 2026-04-26 08:17 | -18.50196 | 114.78662 | 33934 ft | 457 kts | 301° |
| 2026-04-26 08:18 | -18.46782 | 114.73001 | 33935 ft | 457 kts | 301° |
| 2026-04-26 08:18 | -18.43943 | 114.68299 | 33935 ft | 457 kts | 301° |
| 2026-04-26 08:19 | -18.40523 | 114.62637 | 33930 ft | 458 kts | 301° |
| 2026-04-26 08:19 | -18.37101 | 114.56977 | 33927 ft | 458 kts | 301° |
| 2026-04-26 08:20 | -18.33697 | 114.51352 | 33929 ft | 458 kts | 301° |
| 2026-04-26 08:20 | -18.30268 | 114.45690 | 33928 ft | 459 kts | 301° |
| 2026-04-26 08:21 | -18.26834 | 114.40026 | 33930 ft | 459 kts | 301° |
| 2026-04-26 08:21 | -18.23397 | 114.34360 | 33928 ft | 459 kts | 302° |
| 2026-04-26 08:22 | -18.19977 | 114.28729 | 33932 ft | 459 kts | 302° |
| 2026-04-26 08:22 | -18.16535 | 114.23068 | 33913 ft | 459 kts | 301° |
| 2026-04-26 08:23 | -18.13099 | 114.17419 | 33925 ft | 459 kts | 301° |
| 2026-04-26 08:23 | -18.09659 | 114.11769 | 33933 ft | 459 kts | 302° |
| 2026-04-26 08:24 | -18.06227 | 114.06138 | 33931 ft | 459 kts | 302° |
| 2026-04-26 08:24 | -18.02776 | 114.00480 | 33929 ft | 460 kts | 302° |
| 2026-04-26 08:25 | -17.99321 | 113.94820 | 33931 ft | 460 kts | 302° |
| 2026-04-26 08:25 | -17.95858 | 113.89152 | 33926 ft | 460 kts | 302° |
| 2026-04-26 08:26 | -17.92398 | 113.83495 | 33926 ft | 460 kts | 302° |
| 2026-04-26 08:26 | -17.88959 | 113.77876 | 33924 ft | 460 kts | 302° |
| 2026-04-26 08:27 | -17.85486 | 113.72206 | 33927 ft | 460 kts | 302° |
| 2026-04-26 08:27 | -17.82020 | 113.66554 | 33925 ft | 461 kts | 302° |
| 2026-04-26 08:28 | -17.78571 | 113.60932 | 33925 ft | 461 kts | 302° |
| 2026-04-26 08:28 | -17.75097 | 113.55276 | 33925 ft | 461 kts | 302° |
| 2026-04-26 08:29 | -17.71620 | 113.49620 | 33923 ft | 461 kts | 302° |
| 2026-04-26 08:29 | -17.68142 | 113.43967 | 33923 ft | 461 kts | 302° |
| 2026-04-26 08:30 | -17.64659 | 113.38309 | 33916 ft | 461 kts | 302° |
| 2026-04-26 08:30 | -17.61196 | 113.32691 | 33925 ft | 461 kts | 302° |
| 2026-04-26 08:31 | -17.57714 | 113.27045 | 33926 ft | 461 kts | 302° |
| 2026-04-26 08:31 | -17.54229 | 113.21399 | 33919 ft | 461 kts | 302° |
| 2026-04-26 08:32 | -17.50739 | 113.15750 | 33922 ft | 461 kts | 302° |
| 2026-04-26 08:32 | -17.47249 | 113.10106 | 33925 ft | 461 kts | 302° |
| 2026-04-26 08:33 | -17.43755 | 113.04460 | 33923 ft | 461 kts | 302° |
| 2026-04-26 08:33 | -17.40279 | 112.98848 | 33922 ft | 461 kts | 302° |
| 2026-04-26 08:34 | -17.36777 | 112.93200 | 33914 ft | 461 kts | 302° |
| 2026-04-26 08:34 | -17.33286 | 112.87571 | 33922 ft | 461 kts | 302° |
| 2026-04-26 08:35 | -17.29790 | 112.81942 | 33932 ft | 461 kts | 302° |
| 2026-04-26 08:35 | -17.26287 | 112.76305 | 33924 ft | 461 kts | 302° |
| 2026-04-26 08:36 | -17.22808 | 112.70711 | 33920 ft | 461 kts | 302° |
| 2026-04-26 08:36 | -17.19302 | 112.65079 | 33918 ft | 461 kts | 302° |
| 2026-04-26 08:37 | -17.15801 | 112.59459 | 33916 ft | 461 kts | 302° |
| 2026-04-26 08:37 | -17.12296 | 112.53838 | 33921 ft | 461 kts | 302° |
| 2026-04-26 08:38 | -17.08809 | 112.48249 | 33909 ft | 461 kts | 302° |
| 2026-04-26 08:38 | -17.05298 | 112.42627 | 33915 ft | 461 kts | 302° |
| 2026-04-26 08:39 | -17.01792 | 112.37018 | 33914 ft | 460 kts | 302° |
| 2026-04-26 08:39 | -16.98285 | 112.31411 | 33917 ft | 460 kts | 302° |
| 2026-04-26 08:40 | -16.94802 | 112.25848 | 33919 ft | 460 kts | 302° |
| 2026-04-26 08:40 | -16.91299 | 112.20258 | 33916 ft | 459 kts | 302° |
| 2026-04-26 08:41 | -16.87800 | 112.14677 | 33916 ft | 459 kts | 302° |
| 2026-04-26 08:41 | -16.84301 | 112.09100 | 33920 ft | 459 kts | 302° |
| 2026-04-26 08:42 | -16.80797 | 112.03522 | 33916 ft | 459 kts | 303° |
| 2026-04-26 08:42 | -16.77321 | 111.97992 | 33910 ft | 458 kts | 303° |
| 2026-04-26 08:43 | -16.73816 | 111.92420 | 33916 ft | 458 kts | 303° |
| 2026-04-26 08:43 | -16.70310 | 111.86851 | 33914 ft | 458 kts | 303° |
| 2026-04-26 08:44 | -16.66828 | 111.81324 | 33912 ft | 458 kts | 303° |
| 2026-04-26 08:44 | -16.63325 | 111.75768 | 33910 ft | 459 kts | 303° |
| 2026-04-26 08:45 | -16.59815 | 111.70207 | 33915 ft | 459 kts | 303° |
| 2026-04-26 08:45 | -16.56297 | 111.64635 | 33898 ft | 460 kts | 302° |
| 2026-04-26 08:46 | -16.52796 | 111.59097 | 33912 ft | 460 kts | 302° |
| 2026-04-26 08:46 | -16.49272 | 111.53525 | 33906 ft | 461 kts | 303° |
| 2026-04-26 08:47 | -16.45741 | 111.47947 | 33910 ft | 461 kts | 303° |
| 2026-04-26 08:47 | -16.42206 | 111.42366 | 33909 ft | 461 kts | 303° |
| 2026-04-26 08:48 | -16.38684 | 111.36812 | 33906 ft | 461 kts | 303° |
| 2026-04-26 08:48 | -16.35150 | 111.31242 | 33908 ft | 461 kts | 303° |
| 2026-04-26 08:49 | -16.31611 | 111.25669 | 33903 ft | 461 kts | 303° |
| 2026-04-26 08:49 | -16.28069 | 111.20096 | 33899 ft | 460 kts | 302° |
| 2026-04-26 08:50 | -16.24553 | 111.14568 | 33917 ft | 461 kts | 302° |
| 2026-04-26 08:50 | -16.21008 | 111.08996 | 33897 ft | 461 kts | 303° |
| 2026-04-26 08:51 | -16.15680 | 111.00634 | 33904 ft | 461 kts | 303° |
| 2026-04-26 08:52 | -16.12130 | 110.95067 | 33898 ft | 461 kts | 303° |
| 2026-04-26 08:52 | -16.08581 | 110.89505 | 33916 ft | 461 kts | 303° |
| 2026-04-26 08:53 | -16.05045 | 110.83969 | 33918 ft | 461 kts | 303° |
| 2026-04-26 08:53 | -16.01493 | 110.78411 | 33920 ft | 460 kts | 303° |
| 2026-04-26 08:54 | -15.97971 | 110.72905 | 33912 ft | 460 kts | 303° |
| 2026-04-26 08:54 | -15.94418 | 110.67354 | 33907 ft | 461 kts | 303° |
| 2026-04-26 08:55 | -15.90850 | 110.61784 | 33912 ft | 463 kts | 303° |
| 2026-04-26 08:55 | -15.87296 | 110.56240 | 33905 ft | 464 kts | 303° |
| 2026-04-26 08:56 | -15.83717 | 110.50661 | 33908 ft | 464 kts | 303° |
| 2026-04-26 08:56 | -15.80131 | 110.45076 | 33912 ft | 464 kts | 303° |
| 2026-04-26 08:57 | -15.76545 | 110.39495 | 33911 ft | 464 kts | 303° |
| 2026-04-26 08:57 | -15.72959 | 110.33919 | 33893 ft | 463 kts | 303° |
| 2026-04-26 08:58 | -15.69382 | 110.28360 | 33886 ft | 463 kts | 303° |
| 2026-04-26 08:58 | -15.65820 | 110.22828 | 33907 ft | 464 kts | 303° |
| 2026-04-26 08:59 | -15.62222 | 110.17245 | 33902 ft | 465 kts | 303° |
| 2026-04-26 08:59 | -15.58610 | 110.11644 | 33906 ft | 466 kts | 303° |
| 2026-04-26 09:00 | -15.55018 | 110.06079 | 33900 ft | 467 kts | 303° |
| 2026-04-26 09:00 | -15.51400 | 110.00476 | 33904 ft | 467 kts | 303° |
| 2026-04-26 09:01 | -15.47781 | 109.94877 | 33905 ft | 467 kts | 303° |
| 2026-04-26 09:01 | -15.44163 | 109.89285 | 33905 ft | 466 kts | 303° |
| 2026-04-26 09:02 | -15.40566 | 109.83727 | 33894 ft | 466 kts | 303° |
| 2026-04-26 09:02 | -15.36943 | 109.78134 | 33900 ft | 467 kts | 303° |
| 2026-04-26 09:03 | -15.33312 | 109.72532 | 33898 ft | 468 kts | 303° |
| 2026-04-26 09:03 | -15.29694 | 109.66956 | 33900 ft | 469 kts | 303° |
| 2026-04-26 09:04 | -15.26046 | 109.61337 | 33903 ft | 469 kts | 303° |
| 2026-04-26 09:04 | -15.22401 | 109.55726 | 33899 ft | 470 kts | 303° |
| 2026-04-26 09:05 | -15.18771 | 109.50143 | 33896 ft | 469 kts | 303° |
| 2026-04-26 09:05 | -15.15123 | 109.44536 | 33901 ft | 469 kts | 303° |
| 2026-04-26 09:06 | -15.11473 | 109.38929 | 33871 ft | 469 kts | 303° |
| 2026-04-26 09:06 | -15.08437 | 109.34270 | 33895 ft | 469 kts | 303° |
| 2026-04-26 09:07 | -15.04782 | 109.28663 | 33900 ft | 469 kts | 303° |
| 2026-04-26 09:07 | -15.01143 | 109.23085 | 33899 ft | 470 kts | 303° |
| 2026-04-26 09:08 | -14.97475 | 109.17468 | 33902 ft | 470 kts | 303° |
| 2026-04-26 09:08 | -14.93812 | 109.11861 | 33894 ft | 470 kts | 303° |
| 2026-04-26 09:09 | -14.90140 | 109.06245 | 33885 ft | 470 kts | 303° |
| 2026-04-26 09:09 | -14.86498 | 109.00679 | 33894 ft | 470 kts | 303° |
| 2026-04-26 09:10 | -14.82827 | 108.95072 | 33884 ft | 470 kts | 303° |
| 2026-04-26 09:10 | -14.79158 | 108.89472 | 33894 ft | 471 kts | 303° |
| 2026-04-26 09:11 | -14.75499 | 108.83891 | 33896 ft | 472 kts | 303° |
| 2026-04-26 09:11 | -14.71810 | 108.78269 | 33897 ft | 473 kts | 303° |
| 2026-04-26 09:12 | -14.68113 | 108.72637 | 33897 ft | 473 kts | 303° |
| 2026-04-26 09:12 | -14.64412 | 108.67005 | 33894 ft | 474 kts | 303° |
| 2026-04-26 09:13 | -14.60728 | 108.61401 | 33894 ft | 473 kts | 303° |
| 2026-04-26 09:13 | -14.57032 | 108.55782 | 33894 ft | 472 kts | 303° |
| 2026-04-26 09:14 | -14.53336 | 108.50167 | 33890 ft | 472 kts | 303° |
| 2026-04-26 09:14 | -14.49662 | 108.44587 | 33888 ft | 473 kts | 303° |
| 2026-04-26 09:15 | -14.46063 | 108.38887 | 33900 ft | 474 kts | 302° |
| 2026-04-26 09:15 | -14.42506 | 108.33124 | 33893 ft | 476 kts | 302° |
| 2026-04-26 09:16 | -14.38938 | 108.27361 | 33889 ft | 476 kts | 302° |
| 2026-04-26 09:16 | -14.35354 | 108.21605 | 33889 ft | 476 kts | 302° |
| 2026-04-26 09:17 | -14.31788 | 108.15893 | 33889 ft | 476 kts | 302° |
| 2026-04-26 09:17 | -14.28195 | 108.10145 | 33888 ft | 476 kts | 302° |
| 2026-04-26 09:18 | -14.24604 | 108.04402 | 33886 ft | 475 kts | 302° |
| 2026-04-26 09:18 | -14.21047 | 107.98716 | 33879 ft | 475 kts | 303° |
| 2026-04-26 09:19 | -14.17457 | 107.92982 | 33889 ft | 476 kts | 303° |
| 2026-04-26 09:19 | -14.13859 | 107.87238 | 33889 ft | 477 kts | 303° |
| 2026-04-26 09:20 | -14.10253 | 107.81486 | 33886 ft | 478 kts | 303° |
| 2026-04-26 09:20 | -14.06658 | 107.75756 | 33888 ft | 479 kts | 303° |
| 2026-04-26 09:21 | -14.03038 | 107.69989 | 33889 ft | 478 kts | 303° |
| 2026-04-26 09:21 | -13.99423 | 107.64235 | 33887 ft | 478 kts | 303° |
| 2026-04-26 09:22 | -13.95811 | 107.58490 | 33880 ft | 477 kts | 303° |
| 2026-04-26 09:22 | -13.92229 | 107.52795 | 33884 ft | 476 kts | 303° |
| 2026-04-26 09:23 | -13.88625 | 107.47070 | 33880 ft | 476 kts | 303° |
| 2026-04-26 09:23 | -13.85026 | 107.41356 | 33882 ft | 475 kts | 303° |
| 2026-04-26 09:24 | -13.81428 | 107.35648 | 33888 ft | 474 kts | 303° |
| 2026-04-26 09:24 | -13.77835 | 107.29954 | 33883 ft | 474 kts | 303° |
| 2026-04-26 09:25 | -13.74269 | 107.24304 | 33884 ft | 474 kts | 303° |
| 2026-04-26 09:25 | -13.70683 | 107.18626 | 33882 ft | 473 kts | 303° |
| 2026-04-26 09:26 | -13.67082 | 107.12929 | 33880 ft | 473 kts | 303° |
| 2026-04-26 09:26 | -13.63492 | 107.07252 | 33883 ft | 473 kts | 303° |
| 2026-04-26 09:27 | -13.59919 | 107.01607 | 33875 ft | 474 kts | 303° |
| 2026-04-26 09:27 | -13.56318 | 106.95920 | 33881 ft | 475 kts | 303° |
| 2026-04-26 09:28 | -13.52706 | 106.90220 | 33883 ft | 476 kts | 303° |
| 2026-04-26 09:28 | -13.49087 | 106.84513 | 33882 ft | 476 kts | 303° |
| 2026-04-26 09:29 | -13.45460 | 106.78796 | 33882 ft | 477 kts | 303° |
| 2026-04-26 09:29 | -13.41835 | 106.73087 | 33885 ft | 477 kts | 303° |
| 2026-04-26 09:30 | -13.38232 | 106.67414 | 33884 ft | 477 kts | 303° |
| 2026-04-26 09:30 | -13.34603 | 106.61708 | 33878 ft | 476 kts | 303° |
| 2026-04-26 09:31 | -13.30980 | 106.56019 | 33878 ft | 475 kts | 303° |
| 2026-04-26 09:31 | -13.27362 | 106.50340 | 33872 ft | 475 kts | 303° |
| 2026-04-26 09:32 | -13.23744 | 106.44663 | 33874 ft | 475 kts | 303° |
| 2026-04-26 09:32 | -13.20141 | 106.39013 | 33882 ft | 476 kts | 303° |
| 2026-04-26 09:33 | -13.16506 | 106.33315 | 33891 ft | 477 kts | 303° |
| 2026-04-26 09:33 | -13.12865 | 106.27612 | 33883 ft | 477 kts | 303° |
| 2026-04-26 09:34 | -13.09224 | 106.21913 | 33880 ft | 477 kts | 303° |
| 2026-04-26 09:34 | -13.05607 | 106.16254 | 33877 ft | 476 kts | 303° |
| 2026-04-26 09:35 | -13.01969 | 106.10567 | 33877 ft | 476 kts | 303° |
| 2026-04-26 09:35 | -12.98355 | 106.04921 | 33877 ft | 475 kts | 303° |
| 2026-04-26 09:36 | -12.94717 | 105.99240 | 33879 ft | 476 kts | 304° |
| 2026-04-26 09:36 | -12.91074 | 105.93556 | 33882 ft | 477 kts | 304° |
| 2026-04-26 09:37 | -12.87423 | 105.87864 | 33877 ft | 478 kts | 304° |
| 2026-04-26 09:37 | -12.83772 | 105.82174 | 33879 ft | 478 kts | 304° |
| 2026-04-26 09:38 | -12.80115 | 105.76478 | 33875 ft | 478 kts | 304° |
| 2026-04-26 09:38 | -12.76481 | 105.70821 | 33873 ft | 478 kts | 304° |
| 2026-04-26 09:39 | -12.72817 | 105.65122 | 33872 ft | 478 kts | 304° |
| 2026-04-26 09:39 | -12.69154 | 105.59427 | 33877 ft | 477 kts | 304° |
| 2026-04-26 09:40 | -12.65499 | 105.53750 | 33865 ft | 478 kts | 304° |
| 2026-04-26 09:40 | -12.61838 | 105.48065 | 33877 ft | 478 kts | 304° |
| 2026-04-26 09:41 | -12.58166 | 105.42368 | 33877 ft | 480 kts | 304° |
| 2026-04-26 09:41 | -12.54482 | 105.36654 | 33878 ft | 481 kts | 304° |
| 2026-04-26 09:42 | -12.50811 | 105.30967 | 33880 ft | 482 kts | 304° |
| 2026-04-26 09:42 | -12.47106 | 105.25228 | 33880 ft | 482 kts | 304° |
| 2026-04-26 09:43 | -12.43403 | 105.19496 | 33877 ft | 482 kts | 304° |
| 2026-04-26 09:43 | -12.39729 | 105.13812 | 33875 ft | 481 kts | 304° |
| 2026-04-26 09:44 | -12.36035 | 105.08101 | 33876 ft | 480 kts | 304° |
| 2026-04-26 09:44 | -12.32346 | 105.02402 | 33872 ft | 480 kts | 304° |
| 2026-04-26 09:45 | -12.28681 | 104.96743 | 33874 ft | 480 kts | 304° |
| 2026-04-26 09:45 | -12.24987 | 104.91042 | 33875 ft | 481 kts | 304° |
| 2026-04-26 09:46 | -12.21284 | 104.85330 | 33877 ft | 481 kts | 304° |
| 2026-04-26 09:46 | -12.17601 | 104.79655 | 33876 ft | 482 kts | 304° |
| 2026-04-26 09:47 | -12.13893 | 104.73942 | 33873 ft | 482 kts | 304° |
| 2026-04-26 09:47 | -12.10176 | 104.68220 | 33873 ft | 482 kts | 304° |
| 2026-04-26 09:48 | -12.06467 | 104.62513 | 33873 ft | 482 kts | 304° |
| 2026-04-26 09:48 | -12.02780 | 104.56844 | 33869 ft | 482 kts | 304° |
| 2026-04-26 09:49 | -11.99066 | 104.51136 | 33871 ft | 482 kts | 304° |
| 2026-04-26 09:49 | -11.95342 | 104.45417 | 33869 ft | 483 kts | 304° |
| 2026-04-26 09:50 | -11.91641 | 104.39736 | 33869 ft | 483 kts | 304° |
| 2026-04-26 09:50 | -11.87914 | 104.34018 | 33875 ft | 483 kts | 304° |
| 2026-04-26 09:51 | -11.84181 | 104.28294 | 33873 ft | 484 kts | 304° |
| 2026-04-26 09:51 | -11.80448 | 104.22573 | 33870 ft | 484 kts | 304° |
| 2026-04-26 09:52 | -11.76737 | 104.16890 | 33872 ft | 484 kts | 304° |
| 2026-04-26 09:52 | -11.71134 | 104.08315 | 33871 ft | 483 kts | 304° |
| 2026-04-26 09:53 | -11.67398 | 104.02603 | 33865 ft | 483 kts | 304° |
| 2026-04-26 09:53 | -11.63659 | 103.96887 | 33873 ft | 484 kts | 304° |
| 2026-04-26 09:54 | -11.60549 | 103.92137 | 33870 ft | 484 kts | 304° |
| 2026-04-26 09:54 | -11.56191 | 103.85483 | 33876 ft | 485 kts | 304° |
| 2026-04-26 09:55 | -11.53047 | 103.80685 | 33873 ft | 485 kts | 304° |
| 2026-04-26 09:55 | -11.49313 | 103.74991 | 33873 ft | 486 kts | 304° |
| 2026-04-26 09:56 | -11.45558 | 103.69268 | 33873 ft | 486 kts | 304° |
| 2026-04-26 09:56 | -11.41797 | 103.63538 | 33863 ft | 485 kts | 304° |
| 2026-04-26 09:57 | -11.38040 | 103.57819 | 33869 ft | 485 kts | 304° |
| 2026-04-26 09:57 | -11.34300 | 103.52127 | 33856 ft | 486 kts | 304° |
| 2026-04-26 09:58 | -11.30538 | 103.46406 | 33866 ft | 486 kts | 304° |
| 2026-04-26 09:58 | -11.26766 | 103.40673 | 33867 ft | 486 kts | 304° |
| 2026-04-26 09:59 | -11.22987 | 103.34932 | 33868 ft | 487 kts | 304° |
| 2026-04-26 09:59 | -11.19238 | 103.29239 | 33868 ft | 487 kts | 304° |
| 2026-04-26 10:00 | -11.15460 | 103.23506 | 33868 ft | 487 kts | 304° |
| 2026-04-26 10:00 | -11.11673 | 103.17761 | 33871 ft | 487 kts | 304° |
| 2026-04-26 10:01 | -11.07897 | 103.12038 | 33875 ft | 487 kts | 304° |
| 2026-04-26 10:01 | -11.04137 | 103.06339 | 33869 ft | 487 kts | 304° |
| 2026-04-26 10:02 | -11.00358 | 103.00615 | 33858 ft | 487 kts | 304° |
| 2026-04-26 10:02 | -10.96584 | 102.94886 | 33868 ft | 487 kts | 304° |
| 2026-04-26 10:03 | -10.92859 | 102.89162 | 33872 ft | 488 kts | 304° |
| 2026-04-26 10:03 | -10.89117 | 102.83399 | 33870 ft | 488 kts | 304° |
| 2026-04-26 10:04 | -10.85362 | 102.77626 | 33869 ft | 489 kts | 304° |
| 2026-04-26 10:04 | -10.81604 | 102.71856 | 33873 ft | 489 kts | 304° |
| 2026-04-26 10:05 | -10.77842 | 102.66087 | 33869 ft | 488 kts | 304° |
| 2026-04-26 10:05 | -10.74088 | 102.60331 | 33866 ft | 487 kts | 304° |
| 2026-04-26 10:06 | -10.70362 | 102.54623 | 33866 ft | 487 kts | 304° |
| 2026-04-26 10:06 | -10.66614 | 102.48884 | 33861 ft | 486 kts | 304° |
| 2026-04-26 10:07 | -10.62868 | 102.43149 | 33863 ft | 486 kts | 304° |
| 2026-04-26 10:07 | -10.59152 | 102.37466 | 33868 ft | 486 kts | 304° |
| 2026-04-26 10:08 | -10.55407 | 102.31740 | 33864 ft | 486 kts | 304° |
| 2026-04-26 10:08 | -10.51666 | 102.26023 | 33865 ft | 486 kts | 304° |
| 2026-04-26 10:09 | -10.47923 | 102.20305 | 33865 ft | 486 kts | 304° |
| 2026-04-26 10:09 | -10.44196 | 102.14615 | 33862 ft | 486 kts | 304° |
| 2026-04-26 10:10 | -10.40441 | 102.08885 | 33864 ft | 486 kts | 304° |
| 2026-04-26 10:10 | -10.36693 | 102.03171 | 33870 ft | 486 kts | 304° |
| 2026-04-26 10:11 | -10.32966 | 101.97490 | 33858 ft | 486 kts | 304° |
| 2026-04-26 10:11 | -10.29215 | 101.91775 | 33864 ft | 486 kts | 304° |
| 2026-04-26 10:12 | -10.25462 | 101.86058 | 33862 ft | 486 kts | 304° |
| 2026-04-26 10:12 | -10.21699 | 101.80330 | 33868 ft | 486 kts | 304° |
| 2026-04-26 10:13 | -10.17965 | 101.74652 | 33861 ft | 487 kts | 304° |
| 2026-04-26 10:13 | -10.14201 | 101.68927 | 33863 ft | 487 kts | 304° |
| 2026-04-26 10:14 | -10.10434 | 101.63206 | 33865 ft | 486 kts | 304° |
| 2026-04-26 10:14 | -10.06677 | 101.57498 | 33858 ft | 485 kts | 304° |
| 2026-04-26 10:15 | -10.02929 | 101.51807 | 33857 ft | 484 kts | 304° |
| 2026-04-26 10:15 | -9.99207 | 101.46158 | 33855 ft | 484 kts | 304° |
| 2026-04-26 10:16 | -9.95455 | 101.40468 | 33861 ft | 485 kts | 304° |
| 2026-04-26 10:16 | -9.91695 | 101.34767 | 33866 ft | 486 kts | 304° |
| 2026-04-26 10:17 | -9.87923 | 101.29052 | 33875 ft | 487 kts | 304° |
| 2026-04-26 10:17 | -9.84168 | 101.23366 | 33862 ft | 488 kts | 304° |
| 2026-04-26 10:18 | -9.80395 | 101.17654 | 33859 ft | 487 kts | 304° |
| 2026-04-26 10:18 | -9.76630 | 101.11957 | 33865 ft | 486 kts | 304° |
| 2026-04-26 10:19 | -9.72887 | 101.06296 | 33865 ft | 485 kts | 304° |
| 2026-04-26 10:19 | -9.69136 | 101.00626 | 33865 ft | 484 kts | 304° |
| 2026-04-26 10:20 | -9.65991 | 100.95873 | 33862 ft | 484 kts | 304° |
| 2026-04-26 10:20 | -9.61633 | 100.89291 | 33867 ft | 486 kts | 304° |
| 2026-04-26 10:21 | -9.57849 | 100.83580 | 33865 ft | 488 kts | 304° |
| 2026-04-26 10:21 | -9.54053 | 100.77852 | 33858 ft | 490 kts | 304° |
| 2026-04-26 10:22 | -9.50244 | 100.72108 | 33863 ft | 491 kts | 304° |
| 2026-04-26 10:22 | -9.46454 | 100.66396 | 33861 ft | 491 kts | 304° |
| 2026-04-26 10:23 | -9.42642 | 100.60651 | 33861 ft | 491 kts | 304° |
| 2026-04-26 10:23 | -9.38830 | 100.54910 | 33871 ft | 489 kts | 304° |
| 2026-04-26 10:24 | -9.35034 | 100.49197 | 33839 ft | 487 kts | 304° |
| 2026-04-26 10:24 | -9.31256 | 100.43513 | 33855 ft | 485 kts | 304° |
| 2026-04-26 10:25 | -9.27507 | 100.37874 | 33864 ft | 486 kts | 304° |
| 2026-04-26 10:25 | -9.23722 | 100.32185 | 33864 ft | 488 kts | 304° |
| 2026-04-26 10:26 | -9.19919 | 100.26471 | 33865 ft | 490 kts | 304° |
| 2026-04-26 10:26 | -9.16120 | 100.20764 | 33862 ft | 492 kts | 304° |
| 2026-04-26 10:27 | -9.12287 | 100.15010 | 33864 ft | 492 kts | 304° |
| 2026-04-26 10:27 | -9.08454 | 100.09258 | 33855 ft | 492 kts | 304° |
| 2026-04-26 10:28 | -9.04634 | 100.03530 | 33838 ft | 490 kts | 304° |
| 2026-04-26 10:28 | -9.00844 | 99.97848 | 33856 ft | 489 kts | 304° |
| 2026-04-26 10:29 | -8.97043 | 99.92152 | 33848 ft | 488 kts | 304° |
| 2026-04-26 10:29 | -8.93237 | 99.86451 | 33855 ft | 489 kts | 304° |
| 2026-04-26 10:30 | -8.89420 | 99.80736 | 33868 ft | 490 kts | 303° |
| 2026-04-26 10:30 | -8.85597 | 99.75015 | 33856 ft | 491 kts | 304° |
| 2026-04-26 10:31 | -8.81801 | 99.69336 | 33854 ft | 490 kts | 303° |
| 2026-04-26 10:31 | -8.77982 | 99.63626 | 33853 ft | 489 kts | 304° |
| 2026-04-26 10:32 | -8.74171 | 99.57930 | 33852 ft | 488 kts | 304° |
| 2026-04-26 10:32 | -8.70363 | 99.52240 | 33852 ft | 487 kts | 304° |
| 2026-04-26 10:33 | -8.66583 | 99.46594 | 33855 ft | 487 kts | 304° |
| 2026-04-26 10:33 | -8.62779 | 99.40917 | 33859 ft | 486 kts | 304° |
| 2026-04-26 10:34 | -8.59006 | 99.35287 | 33831 ft | 486 kts | 304° |
| 2026-04-26 10:34 | -8.55199 | 99.29610 | 33855 ft | 488 kts | 304° |
| 2026-04-26 10:35 | -8.51370 | 99.23901 | 33858 ft | 491 kts | 304° |
| 2026-04-26 10:35 | -8.47553 | 99.18212 | 33855 ft | 493 kts | 304° |
| 2026-04-26 10:36 | -8.43698 | 99.12469 | 33852 ft | 494 kts | 304° |
| 2026-04-26 10:36 | -8.39838 | 99.06722 | 33859 ft | 493 kts | 303° |
| 2026-04-26 10:37 | -8.35989 | 99.00994 | 33847 ft | 491 kts | 303° |
| 2026-04-26 10:37 | -8.32186 | 98.95336 | 33849 ft | 488 kts | 303° |
| 2026-04-26 10:38 | -8.28369 | 98.89660 | 33853 ft | 486 kts | 303° |
| 2026-04-26 10:38 | -8.24598 | 98.84053 | 33852 ft | 485 kts | 303° |
| 2026-04-26 10:39 | -8.20805 | 98.78416 | 33860 ft | 486 kts | 304° |
| 2026-04-26 10:39 | -8.16994 | 98.72756 | 33860 ft | 488 kts | 303° |
| 2026-04-26 10:40 | -8.13160 | 98.67062 | 33859 ft | 490 kts | 304° |
| 2026-04-26 10:40 | -8.09339 | 98.61391 | 33857 ft | 492 kts | 303° |
| 2026-04-26 10:41 | -8.05484 | 98.55672 | 33853 ft | 492 kts | 303° |
| 2026-04-26 10:41 | -8.01636 | 98.49965 | 33854 ft | 492 kts | 303° |
| 2026-04-26 10:42 | -7.98434 | 98.45218 | 33850 ft | 491 kts | 303° |
| 2026-04-26 10:42 | -7.93970 | 98.38603 | 33849 ft | 490 kts | 303° |
| 2026-04-26 10:43 | -7.90130 | 98.32915 | 33853 ft | 489 kts | 303° |
| 2026-04-26 10:43 | -7.86305 | 98.27251 | 33834 ft | 488 kts | 304° |
| 2026-04-26 10:44 | -7.83127 | 98.22547 | 33852 ft | 487 kts | 304° |
| 2026-04-26 10:44 | -7.79311 | 98.16901 | 33850 ft | 486 kts | 304° |
| 2026-04-26 10:45 | -7.75522 | 98.11296 | 33846 ft | 486 kts | 304° |
| 2026-04-26 10:45 | -7.71702 | 98.05648 | 33847 ft | 486 kts | 304° |
| 2026-04-26 10:46 | -7.67881 | 98.00000 | 33853 ft | 487 kts | 304° |
| 2026-04-26 10:46 | -7.64086 | 97.94392 | 33854 ft | 487 kts | 304° |
| 2026-04-26 10:47 | -7.60264 | 97.88747 | 33850 ft | 487 kts | 304° |
| 2026-04-26 10:47 | -7.56437 | 97.83097 | 33854 ft | 487 kts | 304° |
| 2026-04-26 10:48 | -7.52614 | 97.77455 | 33851 ft | 487 kts | 304° |
| 2026-04-26 10:48 | -7.48809 | 97.71841 | 33856 ft | 487 kts | 305° |
| 2026-04-26 10:49 | -7.44970 | 97.66181 | 33852 ft | 488 kts | 305° |
| 2026-04-26 10:49 | -7.41160 | 97.60564 | 33852 ft | 488 kts | 305° |
| 2026-04-26 10:50 | -7.37321 | 97.54906 | 33851 ft | 489 kts | 305° |
| 2026-04-26 10:50 | -7.33468 | 97.49230 | 33854 ft | 491 kts | 305° |
| 2026-04-26 10:51 | -7.27688 | 97.40719 | 33853 ft | 493 kts | 305° |
| 2026-04-26 10:52 | -7.23809 | 97.35008 | 33849 ft | 494 kts | 305° |
| 2026-04-26 10:52 | -7.19927 | 97.29297 | 33854 ft | 494 kts | 305° |
| 2026-04-26 10:53 | -7.16043 | 97.23583 | 33853 ft | 493 kts | 305° |
| 2026-04-26 10:53 | -7.12185 | 97.17910 | 33851 ft | 493 kts | 305° |
| 2026-04-26 10:54 | -7.06372 | 97.09365 | 33850 ft | 492 kts | 305° |
| 2026-04-26 10:54 | -7.02507 | 97.03684 | 33848 ft | 492 kts | 305° |
| 2026-04-26 10:55 | -6.98644 | 96.97995 | 33848 ft | 491 kts | 304° |
| 2026-04-26 10:55 | -6.94871 | 96.92303 | 33851 ft | 491 kts | 304° |
| 2026-04-26 10:56 | -6.91095 | 96.86566 | 33849 ft | 491 kts | 304° |
| 2026-04-26 10:56 | -6.87319 | 96.80843 | 33859 ft | 490 kts | 303° |
| 2026-04-26 10:57 | -6.83551 | 96.75151 | 33848 ft | 487 kts | 303° |
| 2026-04-26 10:57 | -6.79796 | 96.69484 | 33844 ft | 485 kts | 303° |
| 2026-04-26 10:58 | -6.76052 | 96.63831 | 33843 ft | 484 kts | 304° |
| 2026-04-26 10:58 | -6.72322 | 96.58204 | 33849 ft | 485 kts | 304° |
| 2026-04-26 10:59 | -6.68557 | 96.52526 | 33853 ft | 488 kts | 304° |
| 2026-04-26 10:59 | -6.64811 | 96.46877 | 33854 ft | 489 kts | 304° |
| 2026-04-26 11:00 | -6.61028 | 96.41174 | 33859 ft | 490 kts | 303° |
| 2026-04-26 11:00 | -6.57247 | 96.35477 | 33849 ft | 489 kts | 303° |
| 2026-04-26 11:01 | -6.53488 | 96.29815 | 33847 ft | 488 kts | 303° |
| 2026-04-26 11:01 | -6.49723 | 96.24145 | 33847 ft | 487 kts | 303° |
| 2026-04-26 11:02 | -6.45971 | 96.18495 | 33848 ft | 485 kts | 304° |
| 2026-04-26 11:02 | -6.42219 | 96.12848 | 33838 ft | 486 kts | 305° |
| 2026-04-26 11:03 | -6.38421 | 96.07136 | 33866 ft | 493 kts | 304° |
| 2026-04-26 11:03 | -6.34659 | 96.01478 | 33843 ft | 485 kts | 304° |
| 2026-04-26 11:04 | -6.30928 | 95.95867 | 33839 ft | 479 kts | 304° |
| 2026-04-26 11:04 | -6.27214 | 95.90284 | 33853 ft | 483 kts | 304° |
| 2026-04-26 11:05 | -6.23450 | 95.84628 | 33858 ft | 489 kts | 304° |
| 2026-04-26 11:05 | -6.19686 | 95.78974 | 33849 ft | 489 kts | 304° |
| 2026-04-26 11:06 | -6.15905 | 95.73296 | 33848 ft | 488 kts | 304° |
| 2026-04-26 11:06 | -6.12126 | 95.67623 | 33846 ft | 487 kts | 303° |
| 2026-04-26 11:07 | -6.08357 | 95.61966 | 33850 ft | 486 kts | 303° |
| 2026-04-26 11:07 | -6.04613 | 95.56349 | 33847 ft | 485 kts | 303° |
| 2026-04-26 11:08 | -6.00855 | 95.50712 | 33849 ft | 485 kts | 303° |
| 2026-04-26 11:08 | -5.97100 | 95.45080 | 33849 ft | 485 kts | 303° |
| 2026-04-26 11:09 | -5.93365 | 95.39482 | 33850 ft | 485 kts | 303° |
| 2026-04-26 11:09 | -5.89609 | 95.33852 | 33850 ft | 485 kts | 303° |
| 2026-04-26 11:10 | -5.85843 | 95.28209 | 33847 ft | 486 kts | 304° |
| 2026-04-26 11:10 | -5.82077 | 95.22570 | 33851 ft | 487 kts | 304° |
| 2026-04-26 11:11 | -5.78298 | 95.16910 | 33850 ft | 487 kts | 304° |
| 2026-04-26 11:11 | -5.74543 | 95.11289 | 33849 ft | 488 kts | 304° |
| 2026-04-26 11:12 | -5.70757 | 95.05623 | 33849 ft | 488 kts | 304° |
| 2026-04-26 11:12 | -5.66970 | 94.99957 | 33844 ft | 488 kts | 304° |
| 2026-04-26 11:13 | -5.63205 | 94.94326 | 33852 ft | 487 kts | 304° |
| 2026-04-26 11:13 | -5.59422 | 94.88670 | 33849 ft | 487 kts | 304° |
| 2026-04-26 11:14 | -5.55645 | 94.83022 | 33842 ft | 487 kts | 304° |
| 2026-04-26 11:14 | -5.52506 | 94.78331 | 33845 ft | 486 kts | 304° |
| 2026-04-26 11:15 | -5.48116 | 94.71772 | 33845 ft | 486 kts | 304° |
| 2026-04-26 11:15 | -5.44342 | 94.66134 | 33851 ft | 486 kts | 304° |
| 2026-04-26 11:16 | -5.40566 | 94.60496 | 33845 ft | 486 kts | 304° |
| 2026-04-26 11:16 | -5.36816 | 94.54898 | 33843 ft | 486 kts | 304° |
| 2026-04-26 11:17 | -5.33043 | 94.49266 | 33842 ft | 486 kts | 304° |
| 2026-04-26 11:17 | -5.29262 | 94.43624 | 33841 ft | 486 kts | 304° |
| 2026-04-26 11:18 | -5.25508 | 94.38023 | 33844 ft | 486 kts | 304° |
| 2026-04-26 11:18 | -5.21726 | 94.32382 | 33844 ft | 486 kts | 304° |
| 2026-04-26 11:19 | -5.17943 | 94.26743 | 33839 ft | 487 kts | 304° |
| 2026-04-26 11:19 | -5.14181 | 94.21132 | 33847 ft | 487 kts | 304° |
| 2026-04-26 11:20 | -5.11027 | 94.16434 | 33844 ft | 487 kts | 303° |
| 2026-04-26 11:20 | -5.06601 | 94.09836 | 33844 ft | 487 kts | 303° |
| 2026-04-26 11:21 | -5.02843 | 94.04237 | 33843 ft | 487 kts | 303° |
| 2026-04-26 11:21 | -4.99048 | 93.98606 | 33842 ft | 486 kts | 304° |
| 2026-04-26 11:22 | -4.95053 | 93.93125 | 33842 ft | 486 kts | 307° |
| 2026-04-26 11:22 | -4.90980 | 93.87715 | 33838 ft | 486 kts | 307° |
| 2026-04-26 11:23 | -4.86949 | 93.82321 | 33844 ft | 487 kts | 306° |
| 2026-04-26 11:23 | -4.82892 | 93.76844 | 33843 ft | 487 kts | 306° |
| 2026-04-26 11:24 | -4.78885 | 93.71414 | 33839 ft | 487 kts | 306° |
| 2026-04-26 11:24 | -4.74826 | 93.65915 | 34008 ft | 493 kts | 306° |
| 2026-04-26 11:25 | -4.72788 | 93.63155 | 34252 ft | 492 kts | 306° |
| 2026-04-26 11:25 | -4.70755 | 93.60403 | 34623 ft | 489 kts | 306° |
| 2026-04-26 11:25 | -4.68735 | 93.57671 | 34974 ft | 486 kts | 306° |
| 2026-04-26 11:25 | -4.66722 | 93.54947 | 35222 ft | 486 kts | 306° |
| 2026-04-26 11:26 | -4.64704 | 93.52217 | 35445 ft | 486 kts | 306° |
| 2026-04-26 11:26 | -4.62714 | 93.49526 | 35631 ft | 487 kts | 306° |
| 2026-04-26 11:26 | -4.60698 | 93.46800 | 35849 ft | 487 kts | 306° |
| 2026-04-26 11:26 | -4.58684 | 93.44075 | 36106 ft | 485 kts | 306° |
| 2026-04-26 11:27 | -4.56674 | 93.41357 | 36331 ft | 485 kts | 307° |
| 2026-04-26 11:27 | -4.54658 | 93.38632 | 36424 ft | 488 kts | 306° |
| 2026-04-26 11:27 | -4.52628 | 93.35888 | 36552 ft | 489 kts | 306° |
| 2026-04-26 11:27 | -4.50607 | 93.33155 | 36802 ft | 488 kts | 306° |
| 2026-04-26 11:28 | -4.48585 | 93.30422 | 37068 ft | 486 kts | 306° |
| 2026-04-26 11:28 | -4.46566 | 93.27694 | 37261 ft | 486 kts | 306° |
| 2026-04-26 11:28 | -4.44574 | 93.25001 | 37447 ft | 486 kts | 306° |
| 2026-04-26 11:28 | -4.42562 | 93.22283 | 37622 ft | 486 kts | 306° |
| 2026-04-26 11:29 | -4.40542 | 93.19553 | 37764 ft | 486 kts | 306° |
| 2026-04-26 11:29 | -4.38529 | 93.16834 | 37799 ft | 487 kts | 306° |
| 2026-04-26 11:29 | -4.34482 | 93.11368 | 37829 ft | 487 kts | 306° |
| 2026-04-26 11:30 | -4.31126 | 93.06836 | 37838 ft | 486 kts | 306° |
| 2026-04-26 11:30 | -4.26449 | 93.00521 | 37836 ft | 485 kts | 306° |
| 2026-04-26 11:31 | -4.22427 | 92.95091 | 37838 ft | 484 kts | 306° |
| 2026-04-26 11:31 | -4.18437 | 92.89707 | 37842 ft | 484 kts | 306° |
| 2026-04-26 11:32 | -4.14424 | 92.84291 | 37840 ft | 484 kts | 306° |
| 2026-04-26 11:32 | -4.10398 | 92.78859 | 37846 ft | 485 kts | 306° |
| 2026-04-26 11:33 | -4.06375 | 92.73432 | 37845 ft | 485 kts | 306° |
| 2026-04-26 11:33 | -4.02341 | 92.67993 | 37838 ft | 486 kts | 306° |
| 2026-04-26 11:34 | -3.98330 | 92.62584 | 37842 ft | 487 kts | 306° |
| 2026-04-26 11:34 | -3.94286 | 92.57133 | 37841 ft | 487 kts | 306° |
| 2026-04-26 11:35 | -3.90921 | 92.52597 | 37842 ft | 488 kts | 306° |
| 2026-04-26 11:35 | -3.86864 | 92.47129 | 37844 ft | 488 kts | 306° |
| 2026-04-26 11:36 | -3.82814 | 92.41673 | 37839 ft | 488 kts | 306° |
| 2026-04-26 11:36 | -3.78787 | 92.36248 | 37834 ft | 488 kts | 306° |
| 2026-04-26 11:37 | -3.74737 | 92.30792 | 37839 ft | 488 kts | 306° |
| 2026-04-26 11:37 | -3.70684 | 92.25335 | 37840 ft | 488 kts | 306° |
| 2026-04-26 11:38 | -3.66630 | 92.19876 | 37840 ft | 488 kts | 306° |
| 2026-04-26 11:38 | -3.62601 | 92.14452 | 37838 ft | 489 kts | 306° |
| 2026-04-26 11:39 | -3.58540 | 92.08987 | 37844 ft | 489 kts | 306° |
| 2026-04-26 11:39 | -3.54480 | 92.03522 | 37834 ft | 489 kts | 306° |
| 2026-04-26 11:40 | -3.50418 | 91.98056 | 37840 ft | 489 kts | 306° |
| 2026-04-26 11:40 | -3.46350 | 91.92585 | 37836 ft | 489 kts | 306° |
| 2026-04-26 11:42 | -3.30178 | 91.70837 | 37832 ft | 485 kts | 306° |
| 2026-04-26 11:43 | -3.26152 | 91.65424 | 37839 ft | 484 kts | 306° |
| 2026-04-26 11:43 | -3.22135 | 91.60026 | 37836 ft | 483 kts | 306° |
| 2026-04-26 11:44 | -3.18143 | 91.54661 | 37837 ft | 483 kts | 306° |
| 2026-04-26 11:44 | -3.14133 | 91.49273 | 37834 ft | 483 kts | 307° |
| 2026-04-26 11:45 | -3.10125 | 91.43888 | 37836 ft | 482 kts | 307° |
| 2026-04-26 11:45 | -3.06113 | 91.38499 | 37829 ft | 482 kts | 307° |
| 2026-04-26 11:46 | -3.02101 | 91.33112 | 37829 ft | 483 kts | 306° |
| 2026-04-26 11:46 | -2.98086 | 91.27719 | 37836 ft | 484 kts | 306° |
| 2026-04-26 11:47 | -2.94056 | 91.22308 | 37839 ft | 485 kts | 306° |
| 2026-04-26 11:47 | -2.90041 | 91.16917 | 37845 ft | 486 kts | 306° |
| 2026-04-26 11:48 | -2.85988 | 91.11477 | 37839 ft | 487 kts | 307° |
| 2026-04-26 11:48 | -2.81929 | 91.06029 | 37834 ft | 488 kts | 307° |
| 2026-04-26 11:49 | -2.77899 | 91.00622 | 37838 ft | 487 kts | 307° |
| 2026-04-26 11:49 | -2.73846 | 90.95183 | 37834 ft | 487 kts | 307° |
| 2026-04-26 11:50 | -2.69800 | 90.89755 | 37833 ft | 486 kts | 307° |
| 2026-04-26 11:50 | -2.65759 | 90.84334 | 37831 ft | 486 kts | 307° |
| 2026-04-26 11:51 | -2.61722 | 90.78920 | 37832 ft | 485 kts | 307° |
| 2026-04-26 11:51 | -2.57682 | 90.73502 | 37853 ft | 485 kts | 307° |
| 2026-04-26 11:52 | -2.54327 | 90.69002 | 37827 ft | 485 kts | 307° |
| 2026-04-26 11:52 | -2.49629 | 90.62703 | 37832 ft | 485 kts | 307° |
| 2026-04-26 11:53 | -2.45596 | 90.57296 | 37832 ft | 485 kts | 307° |
| 2026-04-26 11:54 | -2.39534 | 90.49170 | 37836 ft | 485 kts | 307° |
| 2026-04-26 11:54 | -2.35500 | 90.43763 | 37836 ft | 485 kts | 307° |
| 2026-04-26 11:55 | -2.31489 | 90.38387 | 37837 ft | 485 kts | 307° |
| 2026-04-26 11:55 | -2.27453 | 90.32979 | 37828 ft | 485 kts | 307° |
| 2026-04-26 11:56 | -2.23415 | 90.27569 | 37838 ft | 485 kts | 307° |
| 2026-04-26 11:56 | -2.19396 | 90.22184 | 37836 ft | 486 kts | 307° |
| 2026-04-26 11:57 | -2.15349 | 90.16763 | 37838 ft | 486 kts | 307° |
| 2026-04-26 11:57 | -2.11296 | 90.11333 | 37837 ft | 487 kts | 307° |
| 2026-04-26 11:58 | -2.07234 | 90.05891 | 37829 ft | 488 kts | 307° |
| 2026-04-26 11:58 | -2.03172 | 90.00451 | 37838 ft | 488 kts | 307° |
| 2026-04-26 11:59 | -1.99049 | 89.95115 | 37829 ft | 487 kts | 312° |
| 2026-04-26 11:59 | -1.94392 | 89.90215 | 37826 ft | 486 kts | 314° |
| 2026-04-26 12:00 | -1.89695 | 89.85373 | 37832 ft | 485 kts | 314° |
| 2026-04-26 12:00 | -1.85014 | 89.80508 | 37838 ft | 485 kts | 314° |
| 2026-04-26 12:01 | -1.80347 | 89.75624 | 37828 ft | 485 kts | 314° |
| 2026-04-26 12:01 | -1.75705 | 89.70758 | 37833 ft | 486 kts | 314° |
| 2026-04-26 12:02 | -1.71029 | 89.65858 | 37838 ft | 487 kts | 314° |
| 2026-04-26 12:02 | -1.66349 | 89.60956 | 37838 ft | 487 kts | 314° |
| 2026-04-26 12:03 | -1.61663 | 89.56049 | 37831 ft | 488 kts | 314° |
| 2026-04-26 12:03 | -1.56998 | 89.51163 | 37835 ft | 488 kts | 314° |
| 2026-04-26 12:04 | -1.52305 | 89.46249 | 37830 ft | 489 kts | 314° |
| 2026-04-26 12:04 | -1.47608 | 89.41331 | 37832 ft | 489 kts | 314° |
| 2026-04-26 12:05 | -1.42902 | 89.36404 | 37833 ft | 489 kts | 314° |
| 2026-04-26 12:05 | -1.38196 | 89.31477 | 37832 ft | 490 kts | 314° |
| 2026-04-26 12:06 | -1.33520 | 89.26582 | 37833 ft | 490 kts | 314° |
| 2026-04-26 12:06 | -1.28803 | 89.21644 | 37838 ft | 490 kts | 314° |
| 2026-04-26 12:07 | -1.24093 | 89.16714 | 37833 ft | 490 kts | 314° |
| 2026-04-26 12:07 | -1.19418 | 89.11821 | 37833 ft | 489 kts | 314° |
| 2026-04-26 12:08 | -1.14721 | 89.06904 | 37834 ft | 489 kts | 314° |
| 2026-04-26 12:08 | -1.10018 | 89.01982 | 37833 ft | 489 kts | 314° |
| 2026-04-26 12:09 | -1.05327 | 88.97070 | 37833 ft | 489 kts | 314° |
| 2026-04-26 12:09 | -1.00620 | 88.92145 | 37837 ft | 489 kts | 314° |
| 2026-04-26 12:10 | -0.95949 | 88.87262 | 37834 ft | 489 kts | 314° |
| 2026-04-26 12:10 | -0.91236 | 88.82335 | 37835 ft | 489 kts | 314° |
| 2026-04-26 12:11 | -0.86530 | 88.77413 | 37834 ft | 489 kts | 314° |
| 2026-04-26 12:11 | -0.81857 | 88.72525 | 37828 ft | 490 kts | 314° |
| 2026-04-26 12:12 | -0.77126 | 88.67577 | 37835 ft | 495 kts | 314° |
| 2026-04-26 12:12 | -0.72351 | 88.62583 | 37854 ft | 499 kts | 314° |
| 2026-04-26 12:13 | -0.67538 | 88.57549 | 37853 ft | 502 kts | 314° |
| 2026-04-26 12:13 | -0.62685 | 88.52474 | 37833 ft | 505 kts | 314° |
| 2026-04-26 12:14 | -0.57853 | 88.47420 | 37834 ft | 507 kts | 314° |
| 2026-04-26 12:14 | -0.52981 | 88.42325 | 37836 ft | 506 kts | 314° |
| 2026-04-26 12:15 | -0.48118 | 88.37240 | 37833 ft | 505 kts | 314° |
| 2026-04-26 12:15 | -0.43267 | 88.32167 | 37833 ft | 503 kts | 314° |
| 2026-04-26 12:16 | -0.38430 | 88.27110 | 37834 ft | 501 kts | 314° |
| 2026-04-26 12:16 | -0.33651 | 88.22112 | 37831 ft | 500 kts | 314° |
| 2026-04-26 12:17 | -0.28846 | 88.17087 | 37833 ft | 499 kts | 314° |
| 2026-04-26 12:17 | -0.24048 | 88.12070 | 37840 ft | 498 kts | 314° |
| 2026-04-26 12:18 | -0.19263 | 88.07067 | 37837 ft | 498 kts | 314° |
| 2026-04-26 12:18 | -0.14504 | 88.02091 | 37832 ft | 498 kts | 314° |
| 2026-04-26 12:19 | -0.09715 | 87.97084 | 37839 ft | 499 kts | 314° |
| 2026-04-26 12:19 | -0.04906 | 87.92055 | 37851 ft | 499 kts | 314° |
| 2026-04-26 12:20 | -0.00125 | 87.87056 | 37831 ft | 500 kts | 314° |
| 2026-04-26 12:20 | 0.04686 | 87.82025 | 37835 ft | 501 kts | 314° |
| 2026-04-26 12:21 | 0.09508 | 87.76984 | 37836 ft | 502 kts | 314° |
| 2026-04-26 12:21 | 0.14356 | 87.71914 | 37854 ft | 503 kts | 314° |
| 2026-04-26 12:22 | 0.19169 | 87.66881 | 37840 ft | 504 kts | 314° |
| 2026-04-26 12:22 | 0.24018 | 87.61810 | 37837 ft | 504 kts | 314° |
| 2026-04-26 12:23 | 0.28866 | 87.56741 | 37841 ft | 504 kts | 314° |
| 2026-04-26 12:23 | 0.33715 | 87.51671 | 37840 ft | 504 kts | 314° |
| 2026-04-26 12:24 | 0.38536 | 87.46628 | 37845 ft | 504 kts | 314° |
| 2026-04-26 12:24 | 0.43383 | 87.41557 | 37841 ft | 504 kts | 314° |
| 2026-04-26 12:25 | 0.49828 | 87.34819 | 37839 ft | 503 kts | 314° |
| 2026-04-26 12:25 | 0.54668 | 87.29760 | 37839 ft | 503 kts | 314° |
| 2026-04-26 12:26 | 0.59500 | 87.24706 | 37839 ft | 502 kts | 314° |
| 2026-04-26 12:26 | 0.64335 | 87.19649 | 37842 ft | 502 kts | 314° |
| 2026-04-26 12:27 | 0.69161 | 87.14600 | 37840 ft | 502 kts | 314° |
| 2026-04-26 12:27 | 0.73982 | 87.09557 | 37840 ft | 502 kts | 314° |
| 2026-04-26 12:28 | 0.78786 | 87.04530 | 37834 ft | 502 kts | 314° |
| 2026-04-26 12:28 | 0.83613 | 86.99480 | 37837 ft | 502 kts | 314° |
| 2026-04-26 12:29 | 0.88447 | 86.94423 | 37839 ft | 502 kts | 314° |
| 2026-04-26 12:30 | 0.95668 | 86.86867 | 37836 ft | 503 kts | 314° |
| 2026-04-26 12:30 | 1.00509 | 86.81801 | 37833 ft | 503 kts | 314° |
| 2026-04-26 12:31 | 1.07749 | 86.74225 | 37834 ft | 504 kts | 314° |
| 2026-04-26 12:31 | 1.12601 | 86.69148 | 37834 ft | 504 kts | 314° |
| 2026-04-26 12:32 | 1.17449 | 86.64074 | 37842 ft | 504 kts | 314° |
| 2026-04-26 12:33 | 1.24729 | 86.56455 | 37840 ft | 505 kts | 314° |
| 2026-04-26 12:33 | 1.29545 | 86.51414 | 37841 ft | 505 kts | 314° |
| 2026-04-26 12:34 | 1.34406 | 86.46325 | 37843 ft | 505 kts | 314° |
| 2026-04-26 12:34 | 1.39256 | 86.41248 | 37841 ft | 505 kts | 314° |
| 2026-04-26 12:35 | 1.44113 | 86.36163 | 37840 ft | 505 kts | 314° |
| 2026-04-26 12:35 | 1.48973 | 86.31074 | 37844 ft | 505 kts | 314° |
| 2026-04-26 12:36 | 1.53801 | 86.26018 | 37837 ft | 505 kts | 314° |
| 2026-04-26 12:36 | 1.58656 | 86.20933 | 37841 ft | 505 kts | 314° |
| 2026-04-26 12:37 | 1.63512 | 86.15839 | 37839 ft | 506 kts | 314° |
| 2026-04-26 12:37 | 1.68263 | 86.10643 | 37843 ft | 506 kts | 313° |
| 2026-04-26 12:38 | 1.72929 | 86.05439 | 37842 ft | 506 kts | 313° |
| 2026-04-26 12:38 | 1.77637 | 86.00205 | 37840 ft | 506 kts | 313° |
| 2026-04-26 12:39 | 1.82361 | 85.94979 | 37847 ft | 506 kts | 313° |
| 2026-04-26 12:39 | 1.87092 | 85.89756 | 37843 ft | 506 kts | 313° |
| 2026-04-26 12:40 | 1.91824 | 85.84530 | 37838 ft | 506 kts | 313° |
| 2026-04-26 12:40 | 1.96523 | 85.79340 | 37841 ft | 506 kts | 313° |
| 2026-04-26 12:41 | 2.01254 | 85.74112 | 37841 ft | 506 kts | 313° |
| 2026-04-26 12:41 | 2.05979 | 85.68890 | 37839 ft | 506 kts | 313° |
| 2026-04-26 12:42 | 2.10707 | 85.63666 | 37856 ft | 506 kts | 313° |
| 2026-04-26 12:42 | 2.15414 | 85.58463 | 37835 ft | 506 kts | 313° |
| 2026-04-26 12:43 | 2.20143 | 85.53236 | 37832 ft | 506 kts | 313° |
| 2026-04-26 12:43 | 2.24865 | 85.48016 | 37838 ft | 506 kts | 313° |
| 2026-04-26 12:44 | 2.29594 | 85.42787 | 37841 ft | 506 kts | 313° |
| 2026-04-26 12:44 | 2.34322 | 85.37560 | 37840 ft | 506 kts | 313° |
| 2026-04-26 12:45 | 2.39014 | 85.32372 | 37838 ft | 506 kts | 313° |
| 2026-04-26 12:45 | 2.43733 | 85.27152 | 37838 ft | 506 kts | 313° |
| 2026-04-26 12:46 | 2.48465 | 85.21919 | 37835 ft | 505 kts | 313° |
| 2026-04-26 12:46 | 2.53179 | 85.16703 | 37838 ft | 505 kts | 313° |
| 2026-04-26 12:47 | 2.57871 | 85.11513 | 37835 ft | 505 kts | 313° |
| 2026-04-26 12:47 | 2.62584 | 85.06298 | 37835 ft | 505 kts | 313° |
| 2026-04-26 12:48 | 2.67298 | 85.01081 | 37852 ft | 505 kts | 313° |
| 2026-04-26 12:48 | 2.72008 | 84.95869 | 37829 ft | 505 kts | 313° |
| 2026-04-26 12:49 | 2.76715 | 84.90659 | 37835 ft | 504 kts | 313° |
| 2026-04-26 12:49 | 2.81389 | 84.85484 | 37832 ft | 503 kts | 313° |
| 2026-04-26 12:50 | 2.86080 | 84.80290 | 37835 ft | 503 kts | 313° |
| 2026-04-26 12:50 | 2.90780 | 84.75086 | 37831 ft | 502 kts | 313° |
| 2026-04-26 12:51 | 2.95432 | 84.69934 | 37831 ft | 502 kts | 313° |
| 2026-04-26 12:51 | 3.00108 | 84.64755 | 37833 ft | 502 kts | 313° |
| 2026-04-26 12:52 | 3.04797 | 84.59561 | 37858 ft | 502 kts | 313° |
| 2026-04-26 12:52 | 3.09478 | 84.54374 | 37834 ft | 501 kts | 313° |
| 2026-04-26 12:53 | 3.14152 | 84.49195 | 37837 ft | 501 kts | 313° |
| 2026-04-26 12:53 | 3.18824 | 84.44017 | 37837 ft | 500 kts | 313° |
| 2026-04-26 12:54 | 3.23458 | 84.38880 | 37836 ft | 500 kts | 313° |
| 2026-04-26 12:54 | 3.28113 | 84.33719 | 37839 ft | 499 kts | 313° |
| 2026-04-26 12:55 | 3.32766 | 84.28561 | 37836 ft | 499 kts | 313° |
| 2026-04-26 12:55 | 3.37420 | 84.23400 | 37837 ft | 500 kts | 313° |
| 2026-04-26 12:56 | 3.42088 | 84.18222 | 37834 ft | 501 kts | 313° |
| 2026-04-26 12:56 | 3.46763 | 84.13035 | 37833 ft | 501 kts | 313° |
| 2026-04-26 12:57 | 3.51412 | 84.07875 | 37838 ft | 502 kts | 313° |
| 2026-04-26 12:57 | 3.56062 | 84.02658 | 37836 ft | 502 kts | 312° |
| 2026-04-26 12:58 | 3.62918 | 83.94727 | 37841 ft | 502 kts | 311° |
| 2026-04-26 12:58 | 3.67489 | 83.89434 | 37827 ft | 503 kts | 312° |
| 2026-04-26 12:59 | 3.72079 | 83.84139 | 37857 ft | 503 kts | 312° |
| 2026-04-26 12:59 | 3.76685 | 83.78832 | 37841 ft | 505 kts | 312° |
| 2026-04-26 13:00 | 3.81299 | 83.73513 | 37853 ft | 505 kts | 312° |
| 2026-04-26 13:00 | 3.85881 | 83.68231 | 37834 ft | 505 kts | 312° |
| 2026-04-26 13:01 | 3.90492 | 83.62913 | 37834 ft | 505 kts | 311° |
| 2026-04-26 13:01 | 3.95104 | 83.57592 | 37837 ft | 504 kts | 311° |
| 2026-04-26 13:02 | 3.99683 | 83.52310 | 37833 ft | 504 kts | 311° |
| 2026-04-26 13:02 | 4.04282 | 83.47002 | 37852 ft | 504 kts | 311° |
| 2026-04-26 13:03 | 4.08875 | 83.41701 | 37850 ft | 504 kts | 311° |
| 2026-04-26 13:03 | 4.13476 | 83.36391 | 37835 ft | 504 kts | 311° |
| 2026-04-26 13:04 | 4.18049 | 83.31111 | 37834 ft | 504 kts | 311° |
| 2026-04-26 13:04 | 4.22649 | 83.25799 | 37854 ft | 504 kts | 311° |
| 2026-04-26 13:05 | 4.27252 | 83.20482 | 37850 ft | 505 kts | 311° |
| 2026-04-26 13:05 | 4.31859 | 83.15160 | 37835 ft | 505 kts | 312° |
| 2026-04-26 13:06 | 4.36428 | 83.09879 | 37830 ft | 505 kts | 312° |
| 2026-04-26 13:06 | 4.41031 | 83.04560 | 37831 ft | 504 kts | 312° |
| 2026-04-26 13:07 | 4.45639 | 82.99234 | 37852 ft | 504 kts | 312° |
| 2026-04-26 13:07 | 4.50231 | 82.93924 | 37849 ft | 504 kts | 312° |
| 2026-04-26 13:08 | 4.54827 | 82.88609 | 37834 ft | 503 kts | 311° |
| 2026-04-26 13:08 | 4.59386 | 82.83336 | 37829 ft | 503 kts | 311° |
| 2026-04-26 13:09 | 4.63965 | 82.78038 | 37853 ft | 503 kts | 311° |
| 2026-04-26 13:09 | 4.68542 | 82.72741 | 37851 ft | 502 kts | 311° |
| 2026-04-26 13:10 | 4.73122 | 82.67440 | 37834 ft | 502 kts | 311° |
| 2026-04-26 13:10 | 4.77704 | 82.62136 | 37836 ft | 502 kts | 311° |
| 2026-04-26 13:11 | 4.82248 | 82.56874 | 37852 ft | 502 kts | 311° |
| 2026-04-26 13:11 | 4.86824 | 82.51574 | 37853 ft | 502 kts | 311° |
| 2026-04-26 13:12 | 4.91402 | 82.46270 | 37851 ft | 502 kts | 311° |
| 2026-04-26 13:12 | 4.95972 | 82.40975 | 37831 ft | 502 kts | 311° |
| 2026-04-26 13:13 | 4.99776 | 82.36566 | 37840 ft | 502 kts | 311° |
| 2026-04-26 13:13 | 5.05092 | 82.30403 | 37836 ft | 502 kts | 311° |
| 2026-04-26 13:14 | 5.08923 | 82.25961 | 37855 ft | 501 kts | 311° |
| 2026-04-26 13:14 | 5.13458 | 82.20701 | 37854 ft | 502 kts | 311° |
| 2026-04-26 13:15 | 5.18027 | 82.15400 | 37834 ft | 502 kts | 311° |
| 2026-04-26 13:15 | 5.22598 | 82.10097 | 37838 ft | 502 kts | 311° |
| 2026-04-26 13:16 | 5.27176 | 82.04783 | 37837 ft | 502 kts | 311° |
| 2026-04-26 13:16 | 5.31711 | 81.99517 | 37836 ft | 501 kts | 311° |
| 2026-04-26 13:17 | 5.38552 | 81.91573 | 37834 ft | 500 kts | 311° |
| 2026-04-26 13:18 | 5.45339 | 81.83688 | 37835 ft | 498 kts | 311° |
| 2026-04-26 13:19 | 5.52137 | 81.75787 | 37839 ft | 498 kts | 311° |
| 2026-04-26 13:19 | 5.56667 | 81.70520 | 37831 ft | 498 kts | 311° |
| 2026-04-26 13:20 | 5.61195 | 81.65252 | 37838 ft | 498 kts | 311° |
| 2026-04-26 13:20 | 5.65712 | 81.60017 | 37833 ft | 499 kts | 311° |
| 2026-04-26 13:21 | 5.70282 | 81.54752 | 37852 ft | 500 kts | 311° |
| 2026-04-26 13:21 | 5.74859 | 81.49477 | 37834 ft | 501 kts | 311° |
| 2026-04-26 13:22 | 5.79440 | 81.44189 | 37856 ft | 501 kts | 311° |
| 2026-04-26 13:22 | 5.83990 | 81.38936 | 37837 ft | 502 kts | 311° |
| 2026-04-26 13:23 | 5.88572 | 81.33642 | 37857 ft | 501 kts | 311° |
| 2026-04-26 13:23 | 5.93152 | 81.28351 | 37836 ft | 501 kts | 311° |
| 2026-04-26 13:24 | 5.97738 | 81.23051 | 37840 ft | 501 kts | 311° |
| 2026-04-26 13:24 | 6.02286 | 81.17791 | 37820 ft | 501 kts | 310° |
| 2026-04-26 13:25 | 6.06870 | 81.12490 | 37832 ft | 501 kts | 310° |
| 2026-04-26 13:25 | 6.11447 | 81.07195 | 37810 ft | 501 kts | 310° |
| 2026-04-26 13:26 | 6.16004 | 81.01889 | 37803 ft | 501 kts | 310° |
| 2026-04-26 13:26 | 6.20541 | 80.96572 | 37822 ft | 500 kts | 310° |
| 2026-04-26 13:27 | 6.25045 | 80.91295 | 37803 ft | 500 kts | 310° |
| 2026-04-26 13:27 | 6.29579 | 80.85986 | 37823 ft | 500 kts | 310° |
| 2026-04-26 13:28 | 6.34112 | 80.80678 | 37828 ft | 500 kts | 310° |
| 2026-04-26 13:28 | 6.38658 | 80.75352 | 37846 ft | 501 kts | 310° |
| 2026-04-26 13:29 | 6.43175 | 80.70059 | 37831 ft | 501 kts | 310° |
| 2026-04-26 13:29 | 6.47722 | 80.64729 | 37842 ft | 502 kts | 310° |
| 2026-04-26 13:30 | 6.52317 | 80.59448 | 37860 ft | 502 kts | 311° |
| 2026-04-26 13:30 | 6.56962 | 80.54203 | 37861 ft | 502 kts | 312° |
| 2026-04-26 13:31 | 6.61613 | 80.48943 | 37876 ft | 502 kts | 311° |
| 2026-04-26 13:31 | 6.66223 | 80.43708 | 37836 ft | 502 kts | 311° |
| 2026-04-26 13:32 | 6.70855 | 80.38439 | 37839 ft | 502 kts | 311° |
| 2026-04-26 13:32 | 6.75486 | 80.33171 | 37841 ft | 503 kts | 311° |
| 2026-04-26 13:33 | 6.80126 | 80.27892 | 37841 ft | 503 kts | 311° |
| 2026-04-26 13:33 | 6.84738 | 80.22643 | 37839 ft | 503 kts | 311° |
| 2026-04-26 13:34 | 6.89383 | 80.17355 | 37817 ft | 503 kts | 311° |
| 2026-04-26 13:34 | 6.94034 | 80.12057 | 37807 ft | 504 kts | 311° |
| 2026-04-26 13:35 | 6.98687 | 80.06757 | 37811 ft | 505 kts | 311° |
| 2026-04-26 13:35 | 7.03316 | 80.01481 | 37794 ft | 506 kts | 311° |
| 2026-04-26 13:36 | 7.07980 | 79.96163 | 37818 ft | 507 kts | 311° |
| 2026-04-26 13:36 | 7.12650 | 79.90839 | 37819 ft | 507 kts | 310° |
| 2026-04-26 13:37 | 7.16847 | 79.85150 | 37814 ft | 505 kts | 300° |
| 2026-04-26 13:37 | 7.20030 | 79.78862 | 37817 ft | 503 kts | 294° |
| 2026-04-26 13:38 | 7.22976 | 79.72505 | 37810 ft | 503 kts | 294° |
| 2026-04-26 13:38 | 7.25961 | 79.66131 | 37800 ft | 503 kts | 294° |
| 2026-04-26 13:39 | 7.28976 | 79.59763 | 37796 ft | 503 kts | 294° |
| 2026-04-26 13:39 | 7.31996 | 79.53402 | 37826 ft | 503 kts | 294° |
| 2026-04-26 13:40 | 7.34992 | 79.47082 | 37803 ft | 503 kts | 294° |
| 2026-04-26 13:40 | 7.38009 | 79.40714 | 37810 ft | 503 kts | 294° |
| 2026-04-26 13:41 | 7.41024 | 79.34345 | 37823 ft | 503 kts | 294° |
| 2026-04-26 13:41 | 7.44032 | 79.27987 | 37824 ft | 503 kts | 294° |
| 2026-04-26 13:42 | 7.47024 | 79.21661 | 37834 ft | 503 kts | 294° |
| 2026-04-26 13:42 | 7.50029 | 79.15304 | 37817 ft | 502 kts | 293° |
| 2026-04-26 13:43 | 7.52980 | 79.08934 | 37838 ft | 501 kts | 292° |
| 2026-04-26 13:43 | 7.55732 | 79.02496 | 37848 ft | 500 kts | 291° |
| 2026-04-26 13:44 | 7.58455 | 78.96045 | 37843 ft | 499 kts | 291° |
| 2026-04-26 13:44 | 7.61197 | 78.89619 | 37831 ft | 498 kts | 291° |
| 2026-04-26 13:45 | 7.63932 | 78.83252 | 37836 ft | 498 kts | 291° |
| 2026-04-26 13:45 | 7.66689 | 78.76837 | 37840 ft | 498 kts | 291° |
| 2026-04-26 13:46 | 7.69444 | 78.70421 | 37837 ft | 498 kts | 291° |
| 2026-04-26 13:46 | 7.72199 | 78.64000 | 37840 ft | 498 kts | 291° |
| 2026-04-26 13:47 | 7.74931 | 78.57626 | 37839 ft | 498 kts | 291° |
| 2026-04-26 13:47 | 7.77682 | 78.51207 | 37837 ft | 499 kts | 291° |
| 2026-04-26 13:48 | 7.80436 | 78.44778 | 37841 ft | 499 kts | 291° |
| 2026-04-26 13:48 | 7.83192 | 78.38340 | 37839 ft | 499 kts | 291° |
| 2026-04-26 13:49 | 7.85927 | 78.31947 | 37835 ft | 499 kts | 291° |
| 2026-04-26 13:49 | 7.88679 | 78.25512 | 37837 ft | 499 kts | 291° |
| 2026-04-26 13:50 | 7.91427 | 78.19084 | 37836 ft | 499 kts | 291° |
| 2026-04-26 13:50 | 7.94189 | 78.12663 | 37837 ft | 499 kts | 291° |
| 2026-04-26 13:51 | 7.97037 | 78.06267 | 37837 ft | 499 kts | 292° |
| 2026-04-26 13:51 | 7.99906 | 77.99869 | 37840 ft | 499 kts | 292° |
| 2026-04-26 13:52 | 8.02742 | 77.93511 | 37825 ft | 499 kts | 291° |
| 2026-04-26 13:52 | 8.05587 | 77.87110 | 37844 ft | 500 kts | 291° |
| 2026-04-26 13:53 | 8.08433 | 77.80698 | 37838 ft | 500 kts | 291° |
| 2026-04-26 13:53 | 8.11273 | 77.74299 | 37841 ft | 500 kts | 291° |
| 2026-04-26 13:54 | 8.14117 | 77.67889 | 37838 ft | 500 kts | 291° |
| 2026-04-26 13:54 | 8.16949 | 77.61505 | 37847 ft | 500 kts | 291° |
| 2026-04-26 13:55 | 8.20728 | 77.52977 | 37846 ft | 499 kts | 291° |
| 2026-04-26 13:56 | 8.25463 | 77.42286 | 37842 ft | 498 kts | 291° |
| 2026-04-26 13:56 | 8.28275 | 77.35932 | 37846 ft | 498 kts | 291° |
| 2026-04-26 13:57 | 8.31101 | 77.29542 | 37842 ft | 497 kts | 291° |
| 2026-04-26 13:57 | 8.33921 | 77.23164 | 37845 ft | 497 kts | 291° |
| 2026-04-26 13:58 | 8.36735 | 77.16795 | 37848 ft | 496 kts | 290° |
| 2026-04-26 13:58 | 8.39529 | 77.10470 | 37827 ft | 496 kts | 290° |
| 2026-04-26 13:59 | 8.42341 | 77.04100 | 37840 ft | 495 kts | 290° |
| 2026-04-26 13:59 | 8.45144 | 76.97745 | 37836 ft | 495 kts | 290° |
| 2026-04-26 14:00 | 8.50093 | 76.88557 | 37835 ft | 500 kts | 302° |
| 2026-04-26 14:00 | 8.51446 | 76.86665 | 37838 ft | 500 kts | 303° |
| 2026-04-26 14:01 | 8.56238 | 76.80066 | 37834 ft | 501 kts | 303° |
| 2026-04-26 14:01 | 8.60342 | 76.74372 | 37831 ft | 501 kts | 302° |
| 2026-04-26 14:02 | 8.63732 | 76.69623 | 37826 ft | 501 kts | 302° |
| 2026-04-26 14:02 | 8.67808 | 76.63889 | 37831 ft | 502 kts | 302° |
| 2026-04-26 14:03 | 8.71888 | 76.58145 | 37836 ft | 502 kts | 302° |
| 2026-04-26 14:03 | 8.75941 | 76.52440 | 37834 ft | 503 kts | 302° |
| 2026-04-26 14:04 | 8.80025 | 76.46691 | 37840 ft | 503 kts | 302° |
| 2026-04-26 14:04 | 8.84110 | 76.40938 | 37840 ft | 504 kts | 302° |
| 2026-04-26 14:05 | 8.88204 | 76.35170 | 37842 ft | 504 kts | 302° |
| 2026-04-26 14:05 | 8.92268 | 76.29442 | 37841 ft | 504 kts | 302° |
| 2026-04-26 14:06 | 8.96368 | 76.23662 | 37840 ft | 505 kts | 302° |
| 2026-04-26 14:06 | 9.00466 | 76.17880 | 37848 ft | 505 kts | 302° |
| 2026-04-26 14:07 | 9.04534 | 76.12140 | 37853 ft | 504 kts | 302° |
| 2026-04-26 14:07 | 9.08623 | 76.06366 | 37852 ft | 504 kts | 302° |
| 2026-04-26 14:08 | 9.12712 | 76.00588 | 37855 ft | 504 kts | 302° |
| 2026-04-26 14:08 | 9.16797 | 75.94815 | 37860 ft | 504 kts | 302° |
| 2026-04-26 14:09 | 9.20858 | 75.89073 | 37851 ft | 503 kts | 302° |
| 2026-04-26 14:09 | 9.24932 | 75.83310 | 37858 ft | 503 kts | 302° |
| 2026-04-26 14:10 | 9.29005 | 75.77546 | 37856 ft | 502 kts | 301° |
| 2026-04-26 14:10 | 9.33073 | 75.71787 | 37837 ft | 502 kts | 301° |
| 2026-04-26 14:11 | 9.39138 | 75.63195 | 37855 ft | 501 kts | 301° |
| 2026-04-26 14:11 | 9.43191 | 75.57449 | 37836 ft | 501 kts | 301° |
| 2026-04-26 14:12 | 9.47247 | 75.51697 | 37853 ft | 501 kts | 301° |
| 2026-04-26 14:12 | 9.51277 | 75.45978 | 37857 ft | 501 kts | 301° |
| 2026-04-26 14:13 | 9.57348 | 75.37360 | 37843 ft | 501 kts | 301° |
| 2026-04-26 14:14 | 9.61397 | 75.31608 | 37841 ft | 501 kts | 301° |
| 2026-04-26 14:14 | 9.65418 | 75.25894 | 37845 ft | 501 kts | 301° |
| 2026-04-26 14:15 | 9.69468 | 75.20135 | 37857 ft | 501 kts | 301° |
| 2026-04-26 14:15 | 9.73522 | 75.14368 | 37843 ft | 501 kts | 301° |
| 2026-04-26 14:16 | 9.77575 | 75.08600 | 37839 ft | 502 kts | 301° |
| 2026-04-26 14:16 | 9.81622 | 75.02838 | 37845 ft | 502 kts | 301° |
| 2026-04-26 14:17 | 9.85647 | 74.97104 | 37841 ft | 502 kts | 301° |
| 2026-04-26 14:17 | 9.89703 | 74.91322 | 38102 ft | 502 kts | 301° |
| 2026-04-26 14:17 | 9.91729 | 74.88434 | 38347 ft | 501 kts | 301° |
| 2026-04-26 14:18 | 9.93755 | 74.85547 | 38587 ft | 500 kts | 301° |
| 2026-04-26 14:18 | 9.95771 | 74.82672 | 38757 ft | 498 kts | 301° |
| 2026-04-26 14:18 | 9.97753 | 74.79844 | 38935 ft | 497 kts | 301° |
| 2026-04-26 14:18 | 9.99756 | 74.76986 | 39103 ft | 496 kts | 301° |
| 2026-04-26 14:19 | 10.01756 | 74.74130 | 39264 ft | 496 kts | 301° |
| 2026-04-26 14:19 | 10.03750 | 74.71281 | 39425 ft | 495 kts | 301° |
| 2026-04-26 14:19 | 10.05745 | 74.68432 | 39576 ft | 494 kts | 301° |
| 2026-04-26 14:19 | 10.07735 | 74.65589 | 39710 ft | 493 kts | 301° |
| 2026-04-26 14:20 | 10.09727 | 74.62743 | 39771 ft | 493 kts | 301° |
| 2026-04-26 14:20 | 10.13700 | 74.57061 | 39847 ft | 494 kts | 301° |
| 2026-04-26 14:21 | 10.17654 | 74.51405 | 39849 ft | 494 kts | 301° |
| 2026-04-26 14:21 | 10.21646 | 74.45694 | 39855 ft | 495 kts | 301° |
| 2026-04-26 14:22 | 10.25629 | 74.39991 | 39851 ft | 495 kts | 301° |
| 2026-04-26 14:22 | 10.29583 | 74.34327 | 39851 ft | 494 kts | 301° |
| 2026-04-26 14:23 | 10.33567 | 74.28617 | 39851 ft | 494 kts | 301° |
| 2026-04-26 14:23 | 10.37538 | 74.22922 | 39852 ft | 493 kts | 301° |
| 2026-04-26 14:24 | 10.41489 | 74.17261 | 39846 ft | 493 kts | 301° |
| 2026-04-26 14:24 | 10.45484 | 74.11604 | 39849 ft | 492 kts | 301° |
| 2026-04-26 14:25 | 10.49485 | 74.05953 | 39849 ft | 492 kts | 301° |
| 2026-04-26 14:25 | 10.53479 | 74.00301 | 39859 ft | 492 kts | 301° |
| 2026-04-26 14:26 | 10.57466 | 73.94648 | 39851 ft | 491 kts | 301° |
| 2026-04-26 14:26 | 10.61452 | 73.88991 | 39848 ft | 491 kts | 301° |
| 2026-04-26 14:27 | 10.65430 | 73.83345 | 39850 ft | 491 kts | 301° |
| 2026-04-26 14:27 | 10.69383 | 73.77729 | 39851 ft | 491 kts | 301° |
| 2026-04-26 14:28 | 10.73362 | 73.72076 | 39848 ft | 491 kts | 301° |
| 2026-04-26 14:28 | 10.77336 | 73.66425 | 39853 ft | 491 kts | 301° |
| 2026-04-26 14:29 | 10.81317 | 73.60762 | 39847 ft | 491 kts | 301° |
| 2026-04-26 14:29 | 10.85268 | 73.55139 | 39856 ft | 492 kts | 301° |
| 2026-04-26 14:30 | 10.89251 | 73.49467 | 39848 ft | 492 kts | 301° |
| 2026-04-26 14:30 | 10.93231 | 73.43796 | 39849 ft | 493 kts | 301° |
| 2026-04-26 14:31 | 10.97221 | 73.38109 | 39857 ft | 493 kts | 301° |
| 2026-04-26 14:31 | 11.01192 | 73.32445 | 39856 ft | 493 kts | 301° |
| 2026-04-26 14:32 | 11.05183 | 73.26750 | 39850 ft | 494 kts | 301° |
| 2026-04-26 14:32 | 11.09178 | 73.21047 | 39854 ft | 494 kts | 301° |
| 2026-04-26 14:33 | 11.13143 | 73.15382 | 39854 ft | 494 kts | 301° |
| 2026-04-26 14:33 | 11.17136 | 73.09676 | 39852 ft | 495 kts | 301° |
| 2026-04-26 14:34 | 11.21130 | 73.03963 | 39856 ft | 495 kts | 301° |
| 2026-04-26 14:34 | 11.25128 | 72.98243 | 39852 ft | 495 kts | 301° |
| 2026-04-26 14:35 | 11.29126 | 72.92518 | 39857 ft | 495 kts | 301° |
| 2026-04-26 14:35 | 11.33120 | 72.86797 | 39855 ft | 496 kts | 301° |
| 2026-04-26 14:36 | 11.37091 | 72.81106 | 39857 ft | 496 kts | 301° |
| 2026-04-26 14:36 | 11.41094 | 72.75365 | 39856 ft | 496 kts | 301° |
| 2026-04-26 14:37 | 11.45091 | 72.69631 | 39848 ft | 496 kts | 301° |
| 2026-04-26 14:37 | 11.49088 | 72.63892 | 39854 ft | 496 kts | 301° |
| 2026-04-26 14:38 | 11.53081 | 72.58155 | 39863 ft | 496 kts | 301° |
| 2026-04-26 14:38 | 11.57047 | 72.52456 | 39860 ft | 496 kts | 301° |
| 2026-04-26 14:39 | 11.61039 | 72.46714 | 39858 ft | 496 kts | 301° |
| 2026-04-26 14:39 | 11.65031 | 72.40969 | 39858 ft | 496 kts | 301° |
| 2026-04-26 14:40 | 11.69016 | 72.35232 | 39858 ft | 495 kts | 301° |
| 2026-04-26 14:40 | 11.73006 | 72.29485 | 39855 ft | 495 kts | 301° |
| 2026-04-26 14:41 | 11.76988 | 72.23744 | 39859 ft | 495 kts | 301° |
| 2026-04-26 14:41 | 11.80947 | 72.18033 | 39858 ft | 495 kts | 301° |
| 2026-04-26 14:42 | 11.84931 | 72.12283 | 39861 ft | 495 kts | 301° |
| 2026-04-26 14:42 | 11.88910 | 72.06536 | 39858 ft | 495 kts | 301° |
| 2026-04-26 14:43 | 11.92887 | 72.00790 | 39861 ft | 495 kts | 301° |
| 2026-04-26 14:43 | 11.96938 | 71.95079 | 39857 ft | 496 kts | 302° |
| 2026-04-26 14:44 | 12.01069 | 71.89431 | 39862 ft | 496 kts | 302° |
| 2026-04-26 14:44 | 12.05204 | 71.83771 | 39858 ft | 496 kts | 302° |
| 2026-04-26 14:45 | 12.09291 | 71.78140 | 39862 ft | 496 kts | 302° |
| 2026-04-26 14:45 | 12.13401 | 71.72461 | 39863 ft | 497 kts | 302° |
| 2026-04-26 14:46 | 12.17511 | 71.66780 | 39868 ft | 496 kts | 302° |
| 2026-04-26 14:46 | 12.21619 | 71.61100 | 39867 ft | 496 kts | 302° |
| 2026-04-26 14:47 | 12.25724 | 71.55421 | 39867 ft | 496 kts | 302° |
| 2026-04-26 14:47 | 12.29801 | 71.49777 | 39865 ft | 496 kts | 302° |
| 2026-04-26 14:48 | 12.33902 | 71.44098 | 39868 ft | 496 kts | 302° |
| 2026-04-26 14:48 | 12.37999 | 71.38419 | 39865 ft | 495 kts | 302° |
| 2026-04-26 14:49 | 12.42089 | 71.32746 | 39861 ft | 495 kts | 302° |
| 2026-04-26 14:49 | 12.46163 | 71.27092 | 39870 ft | 495 kts | 302° |
| 2026-04-26 14:50 | 12.49561 | 71.22376 | 39872 ft | 495 kts | 302° |
| 2026-04-26 14:50 | 12.53660 | 71.16692 | 39867 ft | 495 kts | 302° |
| 2026-04-26 14:51 | 12.57745 | 71.11022 | 39859 ft | 494 kts | 302° |
| 2026-04-26 14:51 | 12.61797 | 71.05392 | 39863 ft | 494 kts | 302° |
| 2026-04-26 14:52 | 12.65874 | 70.99724 | 39867 ft | 494 kts | 302° |
| 2026-04-26 14:52 | 12.69947 | 70.94057 | 39873 ft | 493 kts | 302° |
| 2026-04-26 14:53 | 12.74019 | 70.88389 | 39870 ft | 493 kts | 302° |
| 2026-04-26 14:53 | 12.78084 | 70.82727 | 39861 ft | 493 kts | 302° |
| 2026-04-26 14:54 | 12.82128 | 70.77090 | 39854 ft | 493 kts | 302° |
| 2026-04-26 14:54 | 12.86192 | 70.71423 | 39873 ft | 493 kts | 302° |
| 2026-04-26 14:55 | 12.90248 | 70.65763 | 39871 ft | 492 kts | 302° |
| 2026-04-26 14:55 | 12.94302 | 70.60101 | 39855 ft | 492 kts | 302° |
| 2026-04-26 14:56 | 12.98334 | 70.54466 | 39866 ft | 492 kts | 302° |
| 2026-04-26 14:56 | 13.02381 | 70.48806 | 39868 ft | 492 kts | 302° |
| 2026-04-26 14:57 | 13.06431 | 70.43139 | 39859 ft | 492 kts | 302° |
| 2026-04-26 14:57 | 13.10467 | 70.37463 | 39861 ft | 492 kts | 301° |
| 2026-04-26 14:58 | 13.14498 | 70.31781 | 39876 ft | 492 kts | 301° |
| 2026-04-26 14:58 | 13.18525 | 70.26103 | 39860 ft | 492 kts | 301° |
| 2026-04-26 14:59 | 13.22528 | 70.20456 | 39861 ft | 492 kts | 301° |
| 2026-04-26 14:59 | 13.26565 | 70.14759 | 39863 ft | 492 kts | 301° |
| 2026-04-26 15:00 | 13.30598 | 70.09063 | 39863 ft | 493 kts | 301° |
| 2026-04-26 15:00 | 13.34607 | 70.03398 | 39881 ft | 493 kts | 301° |
| 2026-04-26 15:01 | 13.38641 | 69.97694 | 39876 ft | 493 kts | 301° |
| 2026-04-26 15:01 | 13.42684 | 69.91974 | 39866 ft | 494 kts | 301° |
| 2026-04-26 15:02 | 13.46717 | 69.86264 | 39874 ft | 494 kts | 301° |
| 2026-04-26 15:02 | 13.50757 | 69.80539 | 39867 ft | 494 kts | 301° |
| 2026-04-26 15:03 | 13.54769 | 69.74852 | 39869 ft | 494 kts | 301° |
| 2026-04-26 15:03 | 13.58807 | 69.69123 | 39869 ft | 495 kts | 301° |
| 2026-04-26 15:04 | 13.62851 | 69.63382 | 39869 ft | 495 kts | 301° |
| 2026-04-26 15:04 | 13.66893 | 69.57641 | 39868 ft | 495 kts | 301° |
| 2026-04-26 15:05 | 13.70935 | 69.51894 | 39882 ft | 495 kts | 301° |
| 2026-04-26 15:05 | 13.74970 | 69.46155 | 39869 ft | 495 kts | 301° |
| 2026-04-26 15:06 | 13.78978 | 69.40449 | 39871 ft | 495 kts | 301° |
| 2026-04-26 15:06 | 13.83014 | 69.34700 | 39870 ft | 495 kts | 301° |
| 2026-04-26 15:07 | 13.89058 | 69.26084 | 39869 ft | 494 kts | 301° |
| 2026-04-26 15:07 | 13.93082 | 69.20342 | 39871 ft | 494 kts | 301° |
| 2026-04-26 15:08 | 13.97081 | 69.14631 | 39873 ft | 494 kts | 302° |
| 2026-04-26 15:08 | 14.01099 | 69.08889 | 39884 ft | 494 kts | 302° |
| 2026-04-26 15:09 | 14.05116 | 69.03145 | 39871 ft | 493 kts | 302° |
| 2026-04-26 15:09 | 14.09133 | 68.97399 | 39874 ft | 493 kts | 302° |
| 2026-04-26 15:10 | 14.12487 | 68.92641 | 39873 ft | 493 kts | 302° |
| 2026-04-26 15:10 | 14.17184 | 68.86007 | 39873 ft | 492 kts | 302° |
| 2026-04-26 15:11 | 14.21218 | 68.80298 | 39871 ft | 492 kts | 302° |
| 2026-04-26 15:11 | 14.25238 | 68.74599 | 39870 ft | 492 kts | 302° |
| 2026-04-26 15:12 | 14.29235 | 68.68926 | 39871 ft | 491 kts | 302° |
| 2026-04-26 15:12 | 14.33253 | 68.63219 | 39872 ft | 491 kts | 302° |
| 2026-04-26 15:13 | 14.37267 | 68.57514 | 39877 ft | 491 kts | 302° |
| 2026-04-26 15:13 | 14.41288 | 68.51795 | 39878 ft | 491 kts | 302° |
| 2026-04-26 15:14 | 14.45270 | 68.46129 | 39879 ft | 491 kts | 302° |
| 2026-04-26 15:14 | 14.49281 | 68.40417 | 39881 ft | 491 kts | 302° |
| 2026-04-26 15:15 | 14.53290 | 68.34702 | 39880 ft | 492 kts | 302° |
| 2026-04-26 15:15 | 14.57306 | 68.28975 | 39880 ft | 492 kts | 302° |
| 2026-04-26 15:16 | 14.61318 | 68.23250 | 39882 ft | 492 kts | 302° |
| 2026-04-26 15:16 | 14.65301 | 68.17561 | 39880 ft | 492 kts | 302° |
| 2026-04-26 15:17 | 14.68661 | 68.12759 | 39875 ft | 492 kts | 302° |
| 2026-04-26 15:17 | 14.73319 | 68.06098 | 39877 ft | 492 kts | 302° |
| 2026-04-26 15:18 | 14.77327 | 68.00361 | 39879 ft | 492 kts | 302° |
| 2026-04-26 15:18 | 14.81308 | 67.94659 | 39879 ft | 491 kts | 302° |
| 2026-04-26 15:19 | 14.85310 | 67.88922 | 39879 ft | 491 kts | 302° |
| 2026-04-26 15:19 | 14.89309 | 67.83186 | 39884 ft | 491 kts | 302° |
| 2026-04-26 15:20 | 14.93312 | 67.77440 | 39878 ft | 491 kts | 302° |
| 2026-04-26 15:20 | 14.97285 | 67.71733 | 39880 ft | 491 kts | 302° |
| 2026-04-26 15:21 | 15.01274 | 67.66000 | 39879 ft | 490 kts | 302° |
| 2026-04-26 15:21 | 15.05262 | 67.60263 | 39879 ft | 490 kts | 302° |
| 2026-04-26 15:22 | 15.09218 | 67.54566 | 39880 ft | 490 kts | 302° |
| 2026-04-26 15:22 | 15.13202 | 67.48826 | 39880 ft | 490 kts | 303° |
| 2026-04-26 15:23 | 15.17178 | 67.43094 | 39888 ft | 489 kts | 303° |
| 2026-04-26 15:23 | 15.21124 | 67.37401 | 39880 ft | 489 kts | 303° |
| 2026-04-26 15:24 | 15.25095 | 67.31667 | 39879 ft | 489 kts | 303° |
| 2026-04-26 15:24 | 15.29058 | 67.25941 | 39881 ft | 488 kts | 303° |
| 2026-04-26 15:25 | 15.32349 | 67.21182 | 39886 ft | 488 kts | 303° |
| 2026-04-26 15:25 | 15.36975 | 67.14488 | 39880 ft | 488 kts | 303° |
| 2026-04-26 15:26 | 15.40925 | 67.08767 | 39884 ft | 488 kts | 303° |
| 2026-04-26 15:26 | 15.44870 | 67.03049 | 39885 ft | 487 kts | 303° |
| 2026-04-26 15:27 | 15.48797 | 66.97352 | 39880 ft | 487 kts | 303° |
| 2026-04-26 15:27 | 15.52745 | 66.91620 | 39878 ft | 487 kts | 303° |
| 2026-04-26 15:28 | 15.56666 | 66.85924 | 39881 ft | 488 kts | 303° |
| 2026-04-26 15:28 | 15.60622 | 66.80200 | 39886 ft | 488 kts | 303° |
| 2026-04-26 15:29 | 15.64625 | 66.74493 | 39885 ft | 489 kts | 303° |
| 2026-04-26 15:30 | 15.72618 | 66.63096 | 39889 ft | 490 kts | 303° |
| 2026-04-26 15:30 | 15.76633 | 66.57350 | 39883 ft | 490 kts | 303° |
| 2026-04-26 15:31 | 15.82650 | 66.48728 | 39883 ft | 491 kts | 304° |
| 2026-04-26 15:32 | 15.87315 | 66.42038 | 39881 ft | 492 kts | 304° |
| 2026-04-26 15:32 | 15.92665 | 66.34357 | 39883 ft | 492 kts | 304° |
| 2026-04-26 15:33 | 15.96679 | 66.28590 | 39886 ft | 492 kts | 304° |
| 2026-04-26 15:33 | 16.00701 | 66.22807 | 39892 ft | 492 kts | 304° |
| 2026-04-26 15:34 | 16.04692 | 66.17063 | 39882 ft | 492 kts | 304° |
| 2026-04-26 15:34 | 16.08708 | 66.11280 | 39882 ft | 492 kts | 304° |
| 2026-04-26 15:35 | 16.12715 | 66.05504 | 39882 ft | 492 kts | 304° |
| 2026-04-26 15:35 | 16.16694 | 65.99764 | 39882 ft | 491 kts | 304° |
| 2026-04-26 15:36 | 16.20713 | 65.93961 | 39885 ft | 491 kts | 304° |
| 2026-04-26 15:36 | 16.24676 | 65.88235 | 39885 ft | 490 kts | 304° |
| 2026-04-26 15:37 | 16.28669 | 65.82462 | 39889 ft | 490 kts | 304° |
| 2026-04-26 15:37 | 16.32651 | 65.76699 | 39886 ft | 490 kts | 304° |
| 2026-04-26 15:38 | 16.35960 | 65.71907 | 39887 ft | 490 kts | 304° |
| 2026-04-26 15:38 | 16.40586 | 65.65204 | 39887 ft | 489 kts | 304° |
| 2026-04-26 15:39 | 16.43885 | 65.60418 | 39886 ft | 489 kts | 304° |
| 2026-04-26 15:39 | 16.47212 | 65.55589 | 39888 ft | 489 kts | 304° |
| 2026-04-26 15:40 | 16.51826 | 65.48886 | 39885 ft | 489 kts | 304° |
| 2026-04-26 15:40 | 16.55794 | 65.43117 | 39892 ft | 489 kts | 304° |
| 2026-04-26 15:41 | 16.59758 | 65.37349 | 39887 ft | 489 kts | 304° |
| 2026-04-26 15:41 | 16.63701 | 65.31608 | 39891 ft | 489 kts | 304° |
| 2026-04-26 15:42 | 16.67663 | 65.25833 | 39887 ft | 489 kts | 305° |
| 2026-04-26 15:42 | 16.71625 | 65.20053 | 39888 ft | 489 kts | 305° |
| 2026-04-26 15:43 | 16.75584 | 65.14274 | 39891 ft | 489 kts | 305° |
| 2026-04-26 15:44 | 16.81489 | 65.05645 | 39893 ft | 489 kts | 305° |
| 2026-04-26 15:44 | 16.87420 | 64.96966 | 39891 ft | 489 kts | 305° |
| 2026-04-26 15:45 | 16.93348 | 64.88282 | 39893 ft | 489 kts | 305° |
| 2026-04-26 15:46 | 16.99265 | 64.79603 | 39895 ft | 489 kts | 305° |
| 2026-04-26 15:46 | 17.02548 | 64.74783 | 39893 ft | 489 kts | 305° |
| 2026-04-26 15:47 | 17.09111 | 64.65136 | 39893 ft | 489 kts | 305° |
| 2026-04-26 15:48 | 17.13055 | 64.59332 | 39896 ft | 489 kts | 305° |
| 2026-04-26 15:48 | 17.17000 | 64.53522 | 39894 ft | 489 kts | 305° |
| 2026-04-26 15:49 | 17.20941 | 64.47713 | 39891 ft | 490 kts | 305° |
| 2026-04-26 15:49 | 17.24884 | 64.41893 | 39890 ft | 490 kts | 305° |
| 2026-04-26 15:50 | 17.28826 | 64.36078 | 39889 ft | 490 kts | 305° |
| 2026-04-26 15:50 | 17.32826 | 64.30359 | 39890 ft | 490 kts | 306° |
| 2026-04-26 15:51 | 17.36893 | 64.24642 | 39897 ft | 489 kts | 307° |
| 2026-04-26 15:51 | 17.40956 | 64.18910 | 39886 ft | 488 kts | 306° |
| 2026-04-26 15:52 | 17.44990 | 64.13189 | 39877 ft | 488 kts | 306° |
| 2026-04-26 15:52 | 17.48993 | 64.07501 | 39885 ft | 487 kts | 306° |
| 2026-04-26 15:53 | 17.53015 | 64.01778 | 39880 ft | 487 kts | 307° |
| 2026-04-26 15:53 | 17.57032 | 63.96060 | 39875 ft | 487 kts | 307° |
| 2026-04-26 15:54 | 17.61026 | 63.90369 | 39887 ft | 486 kts | 307° |
| 2026-04-26 15:54 | 17.65039 | 63.84649 | 39886 ft | 486 kts | 307° |
| 2026-04-26 15:55 | 17.69050 | 63.78924 | 39876 ft | 487 kts | 307° |
| 2026-04-26 15:55 | 17.73040 | 63.73225 | 39885 ft | 487 kts | 307° |
| 2026-04-26 15:56 | 17.77047 | 63.67497 | 39882 ft | 487 kts | 307° |
| 2026-04-26 15:56 | 17.81065 | 63.61750 | 39884 ft | 488 kts | 307° |
| 2026-04-26 15:57 | 17.85082 | 63.55997 | 39886 ft | 488 kts | 307° |
| 2026-04-26 15:57 | 17.89098 | 63.50239 | 39888 ft | 489 kts | 307° |
| 2026-04-26 15:58 | 17.93114 | 63.44480 | 39890 ft | 488 kts | 308° |
| 2026-04-26 15:58 | 17.97099 | 63.38759 | 39878 ft | 488 kts | 308° |
| 2026-04-26 15:59 | 18.01103 | 63.33006 | 39887 ft | 487 kts | 308° |
| 2026-04-26 15:59 | 18.05106 | 63.27249 | 39889 ft | 487 kts | 308° |
| 2026-04-26 16:00 | 18.09078 | 63.21531 | 39887 ft | 486 kts | 308° |
| 2026-04-26 16:00 | 18.13067 | 63.15783 | 39899 ft | 486 kts | 308° |
| 2026-04-26 16:01 | 18.17053 | 63.10035 | 39897 ft | 485 kts | 308° |
| 2026-04-26 16:01 | 18.21030 | 63.04295 | 39888 ft | 485 kts | 308° |
| 2026-04-26 16:02 | 18.24980 | 62.98588 | 39893 ft | 484 kts | 308° |
| 2026-04-26 16:02 | 18.28949 | 62.92850 | 39892 ft | 484 kts | 308° |
| 2026-04-26 16:03 | 18.32909 | 62.87118 | 39893 ft | 483 kts | 308° |
| 2026-04-26 16:03 | 18.36862 | 62.81392 | 39891 ft | 483 kts | 308° |
| 2026-04-26 16:04 | 18.40776 | 62.75718 | 39900 ft | 482 kts | 308° |
| 2026-04-26 16:04 | 18.44713 | 62.70005 | 39894 ft | 481 kts | 308° |
| 2026-04-26 16:05 | 18.48643 | 62.64297 | 39892 ft | 481 kts | 308° |
| 2026-04-26 16:05 | 18.52565 | 62.58595 | 39893 ft | 480 kts | 308° |
| 2026-04-26 16:06 | 18.56489 | 62.52885 | 39891 ft | 480 kts | 308° |
| 2026-04-26 16:06 | 18.60399 | 62.47176 | 39897 ft | 479 kts | 308° |
| 2026-04-26 16:07 | 18.64244 | 62.41499 | 39901 ft | 478 kts | 308° |
| 2026-04-26 16:07 | 18.68099 | 62.35791 | 39888 ft | 476 kts | 308° |
| 2026-04-26 16:08 | 18.71939 | 62.30106 | 39892 ft | 475 kts | 308° |
| 2026-04-26 16:08 | 18.75766 | 62.24439 | 39894 ft | 473 kts | 308° |
| 2026-04-26 16:09 | 18.79557 | 62.18820 | 39897 ft | 472 kts | 309° |
| 2026-04-26 16:09 | 18.83363 | 62.13178 | 39891 ft | 471 kts | 309° |
| 2026-04-26 16:10 | 18.87168 | 62.07530 | 39899 ft | 470 kts | 309° |
| 2026-04-26 16:10 | 18.90954 | 62.01906 | 39894 ft | 469 kts | 309° |
| 2026-04-26 16:11 | 18.94716 | 61.96312 | 39892 ft | 469 kts | 309° |
| 2026-04-26 16:11 | 18.98489 | 61.90697 | 39890 ft | 468 kts | 309° |
| 2026-04-26 16:12 | 19.02265 | 61.85072 | 39889 ft | 468 kts | 309° |
| 2026-04-26 16:12 | 19.07911 | 61.76651 | 39890 ft | 467 kts | 309° |
| 2026-04-26 16:13 | 19.11652 | 61.71066 | 39895 ft | 467 kts | 309° |
| 2026-04-26 16:13 | 19.15411 | 61.65449 | 39890 ft | 467 kts | 309° |
| 2026-04-26 16:14 | 19.19141 | 61.59869 | 39888 ft | 467 kts | 309° |
| 2026-04-26 16:15 | 19.24765 | 61.51448 | 39887 ft | 467 kts | 309° |
| 2026-04-26 16:15 | 19.28507 | 61.45837 | 39886 ft | 466 kts | 309° |
| 2026-04-26 16:16 | 19.34101 | 61.37441 | 39885 ft | 467 kts | 309° |
| 2026-04-26 16:16 | 19.37844 | 61.31817 | 39889 ft | 466 kts | 309° |
| 2026-04-26 16:17 | 19.41583 | 61.26194 | 39883 ft | 466 kts | 309° |
| 2026-04-26 16:17 | 19.45312 | 61.20579 | 39885 ft | 465 kts | 309° |
| 2026-04-26 16:18 | 19.50894 | 61.12167 | 39884 ft | 464 kts | 309° |
| 2026-04-26 16:19 | 19.56444 | 61.03790 | 39875 ft | 464 kts | 309° |
| 2026-04-26 16:20 | 19.62003 | 60.95389 | 39882 ft | 463 kts | 309° |
| 2026-04-26 16:20 | 19.67548 | 60.86998 | 39879 ft | 463 kts | 309° |
| 2026-04-26 16:21 | 19.71221 | 60.81433 | 39882 ft | 463 kts | 309° |
| 2026-04-26 16:21 | 19.74920 | 60.75823 | 39880 ft | 463 kts | 309° |
| 2026-04-26 16:22 | 19.78610 | 60.70220 | 39878 ft | 462 kts | 309° |
| 2026-04-26 16:22 | 19.82273 | 60.64655 | 39881 ft | 462 kts | 309° |
| 2026-04-26 16:23 | 19.85960 | 60.59047 | 39874 ft | 462 kts | 309° |
| 2026-04-26 16:23 | 19.89639 | 60.53446 | 39872 ft | 461 kts | 309° |
| 2026-04-26 16:24 | 19.93302 | 60.47864 | 39870 ft | 460 kts | 309° |
| 2026-04-26 16:24 | 19.96938 | 60.42318 | 39872 ft | 459 kts | 309° |
| 2026-04-26 16:25 | 20.00590 | 60.36742 | 39867 ft | 458 kts | 309° |
| 2026-04-26 16:25 | 20.04542 | 60.31468 | 39869 ft | 452 kts | 319° |
| 2026-04-26 16:26 | 20.08487 | 60.27847 | 39872 ft | 449 kts | 326° |
| 2026-04-26 16:26 | 20.14633 | 60.23788 | 39867 ft | 447 kts | 332° |
| 2026-04-26 16:27 | 20.20008 | 60.20451 | 39866 ft | 447 kts | 331° |
| 2026-04-26 16:27 | 20.25373 | 60.17087 | 39858 ft | 447 kts | 331° |
| 2026-04-26 16:28 | 20.29822 | 60.14271 | 39863 ft | 447 kts | 331° |
| 2026-04-26 16:28 | 20.35168 | 60.10875 | 39860 ft | 447 kts | 331° |
| 2026-04-26 16:29 | 20.40492 | 60.07488 | 39857 ft | 447 kts | 331° |
| 2026-04-26 16:29 | 20.45844 | 60.04081 | 39857 ft | 447 kts | 331° |
| 2026-04-26 16:30 | 20.51204 | 60.00668 | 39857 ft | 447 kts | 331° |
| 2026-04-26 16:30 | 20.56517 | 59.97281 | 39858 ft | 447 kts | 331° |
| 2026-04-26 16:31 | 20.61865 | 59.93870 | 39851 ft | 447 kts | 330° |
| 2026-04-26 16:31 | 20.67209 | 59.90458 | 39848 ft | 447 kts | 330° |
| 2026-04-26 16:32 | 20.72549 | 59.87046 | 39843 ft | 447 kts | 330° |
| 2026-04-26 16:32 | 20.77886 | 59.83633 | 39849 ft | 446 kts | 330° |
| 2026-04-26 16:33 | 20.83180 | 59.80244 | 39842 ft | 446 kts | 330° |
| 2026-04-26 16:33 | 20.88513 | 59.76828 | 39840 ft | 446 kts | 330° |
| 2026-04-26 16:34 | 20.93837 | 59.73414 | 39838 ft | 446 kts | 330° |
| 2026-04-26 16:34 | 20.99165 | 59.69995 | 39841 ft | 445 kts | 330° |
| 2026-04-26 16:35 | 21.04478 | 59.66578 | 39838 ft | 445 kts | 330° |
| 2026-04-26 16:35 | 21.09758 | 59.63173 | 39844 ft | 445 kts | 330° |
| 2026-04-26 16:36 | 21.15066 | 59.59746 | 39827 ft | 445 kts | 330° |
| 2026-04-26 16:36 | 21.20377 | 59.56314 | 39830 ft | 445 kts | 330° |
| 2026-04-26 16:37 | 21.25655 | 59.52902 | 39829 ft | 445 kts | 330° |
| 2026-04-26 16:37 | 21.30956 | 59.49476 | 39830 ft | 445 kts | 330° |
| 2026-04-26 16:38 | 21.36260 | 59.46047 | 39831 ft | 444 kts | 329° |
| 2026-04-26 16:38 | 21.41561 | 59.42615 | 39830 ft | 444 kts | 329° |
| 2026-04-26 16:39 | 21.46863 | 59.39178 | 39830 ft | 444 kts | 329° |
| 2026-04-26 16:39 | 21.52157 | 59.35745 | 39832 ft | 444 kts | 329° |
| 2026-04-26 16:40 | 21.57422 | 59.32326 | 39835 ft | 444 kts | 329° |
| 2026-04-26 16:40 | 21.62718 | 59.28887 | 39835 ft | 445 kts | 329° |
| 2026-04-26 16:41 | 21.68020 | 59.25448 | 39841 ft | 444 kts | 329° |
| 2026-04-26 16:41 | 21.73328 | 59.22003 | 39841 ft | 444 kts | 329° |
| 2026-04-26 16:42 | 21.78599 | 59.18578 | 39844 ft | 444 kts | 329° |
| 2026-04-26 16:42 | 21.83897 | 59.15132 | 39862 ft | 444 kts | 329° |
| 2026-04-26 16:43 | 21.89195 | 59.11683 | 39848 ft | 445 kts | 329° |
| 2026-04-26 16:43 | 21.94459 | 59.08252 | 39851 ft | 445 kts | 329° |
| 2026-04-26 16:44 | 21.99764 | 59.04792 | 39844 ft | 445 kts | 329° |
| 2026-04-26 16:44 | 22.05063 | 59.01332 | 39851 ft | 445 kts | 329° |
| 2026-04-26 16:45 | 22.10364 | 58.97868 | 39856 ft | 445 kts | 328° |
| 2026-04-26 16:45 | 22.15673 | 58.94395 | 39855 ft | 446 kts | 328° |
| 2026-04-26 16:46 | 22.20825 | 58.90697 | 39854 ft | 445 kts | 319° |
| 2026-04-26 16:46 | 22.24992 | 58.85748 | 39863 ft | 448 kts | 308° |
| 2026-04-26 16:47 | 22.28112 | 58.79903 | 39860 ft | 450 kts | 300° |
| 2026-04-26 16:47 | 22.30974 | 58.73917 | 39859 ft | 451 kts | 300° |
| 2026-04-26 16:48 | 22.33873 | 58.67890 | 39858 ft | 451 kts | 300° |
| 2026-04-26 16:48 | 22.36798 | 58.61881 | 39857 ft | 451 kts | 300° |
| 2026-04-26 16:49 | 22.39732 | 58.55878 | 39850 ft | 451 kts | 300° |
| 2026-04-26 16:49 | 22.42645 | 58.49920 | 39857 ft | 451 kts | 300° |
| 2026-04-26 16:50 | 22.45576 | 58.43913 | 39852 ft | 451 kts | 300° |
| 2026-04-26 16:50 | 22.48504 | 58.37904 | 39858 ft | 451 kts | 300° |
| 2026-04-26 16:51 | 22.51423 | 58.31906 | 39867 ft | 450 kts | 300° |
| 2026-04-26 16:51 | 22.54323 | 58.25939 | 39860 ft | 450 kts | 300° |
| 2026-04-26 16:52 | 22.56758 | 58.20922 | 39866 ft | 449 kts | 300° |
| 2026-04-26 16:52 | 22.60134 | 58.13961 | 39863 ft | 449 kts | 300° |
| 2026-04-26 16:53 | 22.63033 | 58.07977 | 39871 ft | 449 kts | 300° |
| 2026-04-26 16:53 | 22.65934 | 58.01979 | 39869 ft | 449 kts | 300° |
| 2026-04-26 16:54 | 22.68810 | 57.96027 | 39869 ft | 449 kts | 300° |
| 2026-04-26 16:54 | 22.71708 | 57.90023 | 39870 ft | 449 kts | 299° |
| 2026-04-26 16:55 | 22.74602 | 57.84018 | 39880 ft | 449 kts | 299° |
| 2026-04-26 16:55 | 22.77488 | 57.78023 | 39892 ft | 449 kts | 299° |
| 2026-04-26 16:56 | 22.81798 | 57.69059 | 39890 ft | 448 kts | 299° |
| 2026-04-26 16:57 | 22.84676 | 57.63062 | 39900 ft | 448 kts | 299° |
| 2026-04-26 16:57 | 22.88995 | 57.54051 | 39922 ft | 449 kts | 299° |
| 2026-04-26 16:58 | 22.91387 | 57.49052 | 39908 ft | 449 kts | 299° |
| 2026-04-26 16:59 | 22.96178 | 57.39027 | 39933 ft | 447 kts | 299° |
| 2026-04-26 17:00 | 23.00184 | 57.26290 | 39947 ft | 454 kts | 280° |
| 2026-04-26 17:00 | 23.00506 | 57.15956 | 39938 ft | 458 kts | 274° |
| 2026-04-26 17:01 | 23.00634 | 57.09042 | 39937 ft | 457 kts | 275° |
| 2026-04-26 17:01 | 23.00896 | 57.02178 | 39925 ft | 456 kts | 281° |
| 2026-04-26 17:02 | 23.02371 | 56.95526 | 39953 ft | 452 kts | 291° |
| 2026-04-26 17:02 | 23.04960 | 56.89331 | 39941 ft | 450 kts | 298° |
| 2026-04-26 17:03 | 23.07885 | 56.83321 | 39906 ft | 450 kts | 299° |
| 2026-04-26 17:03 | 23.10800 | 56.77311 | 39924 ft | 449 kts | 298° |
| 2026-04-26 17:04 | 23.13664 | 56.71324 | 39911 ft | 449 kts | 298° |
| 2026-04-26 17:04 | 23.16531 | 56.65290 | 39919 ft | 448 kts | 298° |
| 2026-04-26 17:05 | 23.19383 | 56.59277 | 39680 ft | 449 kts | 298° |
| 2026-04-26 17:05 | 23.20822 | 56.56240 | 39054 ft | 451 kts | 298° |
| 2026-04-26 17:05 | 23.22260 | 56.53205 | 38185 ft | 453 kts | 298° |
| 2026-04-26 17:06 | 23.23700 | 56.50162 | 37519 ft | 449 kts | 298° |
| 2026-04-26 17:06 | 23.25121 | 56.47158 | 36912 ft | 445 kts | 298° |
| 2026-04-26 17:06 | 23.26536 | 56.44166 | 36194 ft | 444 kts | 298° |
| 2026-04-26 17:06 | 23.27928 | 56.41221 | 35504 ft | 443 kts | 298° |
| 2026-04-26 17:07 | 23.29338 | 56.38234 | 34771 ft | 443 kts | 298° |
| 2026-04-26 17:07 | 23.30747 | 56.35250 | 34081 ft | 443 kts | 298° |
| 2026-04-26 17:07 | 23.32149 | 56.32278 | 33485 ft | 438 kts | 297° |
| 2026-04-26 17:07 | 23.33535 | 56.29337 | 32901 ft | 435 kts | 297° |
| 2026-04-26 17:08 | 23.34914 | 56.26413 | 32244 ft | 433 kts | 297° |
| 2026-04-26 17:08 | 23.36289 | 56.23492 | 31595 ft | 433 kts | 297° |
| 2026-04-26 17:08 | 23.37647 | 56.20608 | 30981 ft | 433 kts | 296° |
| 2026-04-26 17:08 | 23.39019 | 56.17692 | 30404 ft | 431 kts | 296° |
| 2026-04-26 17:09 | 23.40383 | 56.14789 | 29810 ft | 430 kts | 296° |
| 2026-04-26 17:09 | 23.40842 | 56.13812 | 29587 ft | 429 kts | 296° |
| 2026-04-26 17:09 | 23.43089 | 56.09024 | 28644 ft | 423 kts | 296° |
| 2026-04-26 17:09 | 23.44420 | 56.06187 | 28132 ft | 419 kts | 295° |
| 2026-04-26 17:10 | 23.45743 | 56.03365 | 27609 ft | 416 kts | 295° |
| 2026-04-26 17:10 | 23.47054 | 56.00568 | 27077 ft | 413 kts | 295° |
| 2026-04-26 17:10 | 23.48357 | 55.97785 | 26541 ft | 411 kts | 295° |
| 2026-04-26 17:10 | 23.49653 | 55.95016 | 26032 ft | 408 kts | 295° |
| 2026-04-26 17:11 | 23.50925 | 55.92298 | 25535 ft | 406 kts | 295° |
| 2026-04-26 17:11 | 23.52202 | 55.89567 | 25071 ft | 403 kts | 295° |
| 2026-04-26 17:11 | 23.53492 | 55.86863 | 24587 ft | 402 kts | 297° |
| 2026-04-26 17:11 | 23.55023 | 55.84305 | 24118 ft | 402 kts | 303° |
| 2026-04-26 17:12 | 23.58681 | 55.79735 | 23238 ft | 399 kts | 311° |
| 2026-04-26 17:12 | 23.60661 | 55.77620 | 22730 ft | 397 kts | 312° |
| 2026-04-26 17:13 | 23.64561 | 55.73481 | 21788 ft | 391 kts | 312° |
| 2026-04-26 17:13 | 23.66498 | 55.71411 | 21310 ft | 388 kts | 312° |
| 2026-04-26 17:13 | 23.70332 | 55.67292 | 20356 ft | 385 kts | 312° |
| 2026-04-26 17:14 | 23.72234 | 55.65242 | 19896 ft | 383 kts | 313° |
| 2026-04-26 17:14 | 23.76008 | 55.61169 | 19042 ft | 379 kts | 313° |
| 2026-04-26 17:14 | 23.77878 | 55.59152 | 18619 ft | 377 kts | 313° |
| 2026-04-26 17:15 | 23.81545 | 55.55128 | 17716 ft | 373 kts | 309° |
| 2026-04-26 17:15 | 23.82630 | 55.53635 | 17395 ft | 370 kts | 303° |
| 2026-04-26 17:15 | 23.84408 | 55.50495 | 16787 ft | 365 kts | 295° |
| 2026-04-26 17:16 | 23.85136 | 55.48800 | 16452 ft | 364 kts | 292° |
| 2026-04-26 17:16 | 23.86190 | 55.46295 | 16013 ft | 362 kts | 294° |
| 2026-04-26 17:16 | 23.87286 | 55.43860 | 15627 ft | 360 kts | 295° |
| 2026-04-26 17:16 | 23.88403 | 55.41420 | 15238 ft | 356 kts | 295° |
| 2026-04-26 17:17 | 23.89506 | 55.39001 | 14820 ft | 355 kts | 295° |
| 2026-04-26 17:17 | 23.90684 | 55.36667 | 14555 ft | 338 kts | 302° |
| 2026-04-26 17:17 | 23.92022 | 55.34723 | 14342 ft | 312 kts | 309° |
| 2026-04-26 17:17 | 23.93424 | 55.32995 | 13916 ft | 297 kts | 310° |
| 2026-04-26 17:18 | 23.94796 | 55.31340 | 13173 ft | 292 kts | 310° |
| 2026-04-26 17:18 | 23.96169 | 55.29688 | 12281 ft | 294 kts | 311° |
| 2026-04-26 17:18 | 23.97546 | 55.28028 | 11424 ft | 295 kts | 311° |
| 2026-04-26 17:18 | 23.98918 | 55.26368 | 10678 ft | 292 kts | 311° |
| 2026-04-26 17:19 | 24.01587 | 55.23129 | 9246 ft | 282 kts | 311° |
| 2026-04-26 17:19 | 24.02875 | 55.21563 | 8507 ft | 278 kts | 311° |
| 2026-04-26 17:19 | 24.04162 | 55.19999 | 7752 ft | 275 kts | 311° |
| 2026-04-26 17:20 | 24.05438 | 55.18446 | 7065 ft | 270 kts | 312° |
| 2026-04-26 17:20 | 24.06264 | 55.17440 | 6632 ft | 266 kts | 312° |
| 2026-04-26 17:20 | 24.07903 | 55.15443 | 5682 ft | 262 kts | 313° |
| 2026-04-26 17:20 | 24.09100 | 55.13984 | 4946 ft | 260 kts | 313° |
| 2026-04-26 17:21 | 24.10304 | 55.12516 | 4443 ft | 263 kts | 313° |
| 2026-04-26 17:21 | 24.11554 | 55.10994 | 4295 ft | 269 kts | 313° |
| 2026-04-26 17:21 | 24.12791 | 55.09485 | 4144 ft | 262 kts | 313° |
| 2026-04-26 17:21 | 24.13989 | 55.08022 | 4104 ft | 253 kts | 313° |
| 2026-04-26 17:22 | 24.15120 | 55.06640 | 3952 ft | 234 kts | 313° |
| 2026-04-26 17:22 | 24.16178 | 55.05348 | 3747 ft | 225 kts | 312° |
| 2026-04-26 17:22 | 24.17213 | 55.04085 | 3650 ft | 220 kts | 313° |
| 2026-04-26 17:22 | 24.18224 | 55.02850 | 3595 ft | 214 kts | 313° |
| 2026-04-26 17:23 | 24.19212 | 55.01643 | 3458 ft | 211 kts | 313° |
| 2026-04-26 17:23 | 24.20220 | 55.00481 | 3283 ft | 209 kts | 315° |
| 2026-04-26 17:23 | 24.21204 | 54.99317 | 3123 ft | 206 kts | 313° |
| 2026-04-26 17:23 | 24.22130 | 54.98124 | 3080 ft | 207 kts | 311° |
| 2026-04-26 17:24 | 24.23040 | 54.96897 | 3039 ft | 212 kts | 310° |
| 2026-04-26 17:24 | 24.23954 | 54.95632 | 3013 ft | 211 kts | 309° |
| 2026-04-26 17:24 | 24.24856 | 54.94370 | 3003 ft | 210 kts | 310° |
| 2026-04-26 17:24 | 24.25754 | 54.93106 | 3015 ft | 210 kts | 310° |
| 2026-04-26 17:25 | 24.26652 | 54.91842 | 3006 ft | 209 kts | 310° |
| 2026-04-26 17:25 | 24.27546 | 54.90582 | 2999 ft | 209 kts | 310° |
| 2026-04-26 17:25 | 24.28435 | 54.89330 | 3015 ft | 208 kts | 309° |
| 2026-04-26 17:25 | 24.29321 | 54.88079 | 2946 ft | 208 kts | 309° |
| 2026-04-26 17:26 | 24.30214 | 54.86819 | 2705 ft | 211 kts | 310° |
| 2026-04-26 17:26 | 24.31115 | 54.85548 | 2537 ft | 210 kts | 310° |
| 2026-04-26 17:26 | 24.31999 | 54.84300 | 2358 ft | 209 kts | 310° |
| 2026-04-26 17:26 | 24.32892 | 54.83042 | 2222 ft | 204 kts | 310° |
| 2026-04-26 17:27 | 24.33726 | 54.81863 | 2134 ft | 188 kts | 309° |
| 2026-04-26 17:27 | 24.34508 | 54.80760 | 2123 ft | 177 kts | 310° |
| 2026-04-26 17:27 | 24.35241 | 54.79723 | 2034 ft | 167 kts | 309° |
| 2026-04-26 17:27 | 24.35947 | 54.78729 | 2034 ft | 165 kts | 310° |
| 2026-04-26 17:28 | 24.36655 | 54.77730 | 2028 ft | 166 kts | 310° |
| 2026-04-26 17:28 | 24.37363 | 54.76730 | 2015 ft | 166 kts | 310° |
| 2026-04-26 17:28 | 24.38072 | 54.75730 | 1970 ft | 167 kts | 310° |
| 2026-04-26 17:28 | 24.38766 | 54.74749 | 1766 ft | 159 kts | 310° |
| 2026-04-26 17:29 | 24.39428 | 54.73813 | 1543 ft | 148 kts | 310° |
| 2026-04-26 17:29 | 24.39835 | 54.73238 | 1394 ft | 143 kts | 309° |
| 2026-04-26 17:29 | 24.40647 | 54.72078 | 1235 ft | 143 kts | 308° |
| 2026-04-26 17:29 | 24.41251 | 54.71181 | 1091 ft | 147 kts | 309° |
| 2026-04-26 17:30 | 24.41877 | 54.70305 | 942 ft | 146 kts | 309° |
| 2026-04-26 17:30 | 24.42514 | 54.69429 | 778 ft | 148 kts | 308° |
| 2026-04-26 17:30 | 24.43149 | 54.68541 | 562 ft | 150 kts | 307° |
| 2026-04-26 17:30 | 24.43781 | 54.67642 | 310 ft | 148 kts | 307° |
| 2026-04-26 17:31 | 24.44408 | 54.66765 | 102 ft | 145 kts | 309° |
| 2026-04-26 17:31 | 24.44971 | 54.65986 | 93 ft | 110 kts | 308° |
| 2026-04-26 17:31 | 24.45342 | 54.65466 | 91 ft | 57 kts | 308° |
| 2026-04-26 17:31 | 24.45575 | 54.65134 | 90 ft | 43 kts | 304° |
| 2026-04-26 17:32 | 24.45643 | 54.64906 | 91 ft | 26 kts | 279° |
| 2026-04-26 17:32 | 24.45650 | 54.64837 | 95 ft | 0 kts | 277° |
| 2026-04-26 17:32 | 24.45651 | 54.64825 | 95 ft | 5 kts | 277° |
| 2026-04-26 17:33 | 24.45660 | 54.64755 | 94 ft | 11 kts | 278° |
| 2026-04-26 17:33 | 24.45687 | 54.64676 | 96 ft | 11 kts | 304° |
| 2026-04-26 17:33 | 24.45684 | 54.64605 | 98 ft | 10 kts | 222° |
| 2026-04-26 17:34 | 24.45579 | 54.64668 | 99 ft | 10 kts | 127° |
| 2026-04-26 17:34 | 24.45536 | 54.64731 | 99 ft | 10 kts | 127° |
| 2026-04-26 17:34 | 24.45490 | 54.64795 | 96 ft | 11 kts | 128° |
| 2026-04-26 17:34 | 24.45441 | 54.64864 | 98 ft | 12 kts | 128° |
| 2026-04-26 17:35 | 24.45380 | 54.64949 | 98 ft | 17 kts | 128° |
| 2026-04-26 17:35 | 24.45316 | 54.65038 | 98 ft | 15 kts | 128° |
| 2026-04-26 17:35 | 24.45253 | 54.65127 | 99 ft | 15 kts | 128° |
| 2026-04-26 17:35 | 24.45199 | 54.65203 | 98 ft | 7 kts | 132° |
| 2026-04-26 17:36 | 24.45154 | 54.65224 | 99 ft | 7 kts | 176° |
| 2026-04-26 17:36 | 24.45109 | 54.65204 | 98 ft | 7 kts | 217° |
| 2026-04-26 17:36 | 24.45034 | 54.65141 | 99 ft | 20 kts | 218° |
| 2026-04-26 17:36 | 24.44922 | 54.65045 | 99 ft | 20 kts | 217° |
| 2026-04-26 17:37 | 24.44810 | 54.64952 | 100 ft | 20 kts | 217° |
| 2026-04-26 17:37 | 24.44698 | 54.64857 | 100 ft | 20 kts | 218° |
| 2026-04-26 17:37 | 24.44590 | 54.64766 | 99 ft | 12 kts | 217° |
| 2026-04-26 17:38 | 24.44509 | 54.64698 | 100 ft | 7 kts | 217° |
| 2026-04-26 17:38 | 24.44472 | 54.64668 | 99 ft | 7 kts | 217° |
| 2026-04-26 17:38 | 24.44447 | 54.64646 | 99 ft | 1 kts | 217° |
| 2026-04-26 17:38 | 24.44440 | 54.64640 | 100 ft | 2 kts | 217° |
| 2026-04-26 17:39 | 24.44429 | 54.64625 | 99 ft | 3 kts | 250° |
| 2026-04-26 17:39 | 24.44437 | 54.64606 | 99 ft | 3 kts | 306° |
| 2026-04-26 17:39 | 24.44452 | 54.64584 | 100 ft | 4 kts | 307° |
| 2026-04-26 17:39 | 24.44470 | 54.64558 | 97 ft | 5 kts | 307° |
| 2026-04-26 17:40 | 24.44475 | 54.64551 | 97 ft | 0 kts | 307° |